Eltham High School

Historical Weather Data

                  Temp     Hi    Low   Out         Wind        Wind    Hi    Hi   Wind   Heat          THSW                Rain  Solar   Solar Hi Solar         UV    Hi     Heat    Cool    In     In          Wind  Wind    ISS   Arc.
  Date    Time     Out   Temp   Temp   Hum    Dew Speed   Dir   Run Speed   Dir  Chill  Index    THW  Index   Bar    Rain  Rate   Rad.  Energy    Rad.    UV   Dose   UV     D-D     D-D    Temp   Hum     ET   Samp   Tx   Recept  Int.
------------------------------------------------------------------------------------------------------------------------------------------------------------------------------------------------------------------------------------------
 5/12/18 12:30a   15.3   15.4   15.3    77   11.3   0.0   SSE  0.00   3.2   SSE   15.3   15.2   15.2   13.4  1033.5  0.00   0.0     0     0.00      0     0.0  0.00   0.0   0.063   0.000   27.9    36    0.00   700    1    100.0   30 
 5/12/18  1:00a   15.3   15.3   15.3    77   11.3   0.0   SSE  0.00  12.9   SSE   15.3   15.1   15.1   13.4  1033.5  0.00   0.0     0     0.00      0     0.0  0.00   0.0   0.064   0.000   27.9    36    0.03   702    1    100.0   30 
 5/12/18  1:30a   15.2   15.3   15.2    78   11.4   0.0   SSE  0.00   8.0   SSE   15.2   15.0   15.0   13.3  1033.1  0.00   0.0     0     0.00      0     0.0  0.00   0.0   0.066   0.000   27.8    37    0.00   700    1    100.0   30 
 5/12/18  2:00a   14.7   15.1   14.6    80   11.3   0.0   SSE  0.00   4.8   SSE   14.7   14.6   14.6   12.8  1032.8  0.00   0.0     0     0.00      0     0.0  0.00   0.0   0.076   0.000   27.8    37    0.03   699    1    100.0   30 
 5/12/18  2:30a   13.8   14.6   13.8    83   10.9   0.0   ---  0.00   0.0   ---   13.8   13.7   13.7   11.9  1032.5  0.00   0.0     0     0.00      0     0.0  0.00   0.0   0.095   0.000   27.8    36    0.00   703    1    100.0   30 
 5/12/18  3:00a   13.1   13.8   13.1    85   10.6   0.0   ---  0.00   0.0   ---   13.1   13.1   13.1   11.3  1032.4  0.00   0.0     0     0.00      0     0.0  0.00   0.0   0.109   0.000   27.8    36    0.03   686    1    100.0   30 
 5/12/18  3:30a   12.8   13.1   12.8    88   10.9   0.0   ---  0.00   0.0   ---   12.8   12.8   12.8   11.1  1032.2  0.00   0.0     0     0.00      0     0.0  0.00   0.0   0.115   0.000   27.7    36    0.00   696    1    100.0   30 
 5/12/18  4:00a   12.3   12.8   12.3    88   10.4   0.0   ---  0.00   0.0   ---   12.3   12.3   12.3   10.6  1032.5  0.00   0.0     0     0.00      0     0.0  0.00   0.0   0.125   0.000   27.4    36    0.00   700    1    100.0   30 
 5/12/18  4:30a   11.6   12.3   11.6    89    9.9   0.0   ---  0.00   0.0   ---   11.6   11.7   11.7    9.9  1032.8  0.00   0.0     0     0.00      0     0.0  0.00   0.0   0.140   0.000   27.3    36    0.00   702    1    100.0   30 
 5/12/18  5:00a   11.4   11.6   11.3    91   10.0   0.0   ---  0.00   0.0   ---   11.4   11.6   11.6    9.8  1033.2  0.00   0.0     0     0.00      0     0.0  0.00   0.0   0.144   0.000   27.2    36    0.00   701    1    100.0   30 
 5/12/18  5:30a   11.8   11.8   11.4    92   10.6   0.0   ---  0.00   0.0   ---   11.8   11.9   11.9   10.2  1033.4  0.00   0.0     0     0.00      0     0.0  0.00   0.0   0.135   0.000   27.0    36    0.00   700    1    100.0   30 
 5/12/18  6:00a   11.3   11.8   11.3    91    9.9   0.0   ---  0.00   0.0   ---   11.3   11.4   11.4    9.6  1033.8  0.00   0.0     3     0.13     11     0.0  0.00   0.0   0.147   0.000   26.9    36    0.00   702    1    100.0   30 
 5/12/18  6:30a   11.6   11.6   10.9    94   10.6   0.0   ---  0.00   0.0   ---   11.6   11.7   11.7   10.4  1033.9  0.00   0.0    33     1.42     72     0.0  0.00   0.0   0.141   0.000   26.8    36    0.00   700    1    100.0   30 
 5/12/18  7:00a   12.7   12.7   11.6    92   11.4   0.0   ---  0.00   0.0   ---   12.7   12.7   12.7   12.2  1034.0  0.00   0.0   103     4.43    148     0.0  0.00   0.0   0.118   0.000   26.7    36    0.03   702    1    100.0   30 
 5/12/18  7:30a   14.4   14.4   12.7    88   12.4   0.0   ---  0.00   0.0   ---   14.4   14.4   14.4   18.1  1034.1  0.00   0.0   210     9.03    269     0.1  0.02   0.5   0.082   0.000   26.7    36    0.00   702    1    100.0   30 
 5/12/18  8:00a   15.6   15.6   14.4    80   12.2   0.0   ---  0.00   0.0   ---   15.6   15.6   15.6   20.3  1034.1  0.00   0.0   292    12.56    345     0.7  0.15   0.8   0.057   0.000   26.8    36    0.13   703    1    100.0   30 
 5/12/18  8:30a   16.6   16.6   15.7    72   11.5   0.0   ---  0.00   0.0   ---   16.6   16.4   16.4   20.9  1034.2  0.00   0.0   311    13.37    383     1.1  0.24   1.3   0.036   0.000   27.0    36    0.00   702    1    100.0   30 
 5/12/18  9:00a   17.1   17.1   16.6    70   11.5   0.0     S  0.00   9.7     S   17.1   16.8   16.8   22.0  1034.4  0.00   0.0   394    16.94    570     1.6  0.34   2.0   0.027   0.000   26.9    37    0.18   702    1    100.0   30 
 5/12/18  9:30a   18.1   18.2   17.0    64   11.2   0.0     S  0.00   9.7     S   18.1   17.8   17.8   24.4  1034.3  0.00   0.0   614    26.41    780     2.7  0.58   3.2   0.005   0.000   26.7    38    0.00   702    1    100.0   30 
 5/12/18 10:00a   19.1   19.1   18.1    62   11.7   0.0     S  0.00   4.8     S   19.1   18.9   18.9   25.2  1034.1  0.00   0.0   690    29.67    872     3.4  0.73   4.2   0.000   0.016   26.9    39    0.36   699    1    100.0   30 
 5/12/18 10:30a   20.3   20.3   19.1    56   11.2   0.0     S  0.00   8.0     S   20.3   19.8   19.8   26.7  1033.8  0.00   0.0   836    35.95    937     4.6  0.99   5.4   0.000   0.041   27.4    39    0.00   701    1    100.0   30 
 5/12/18 11:00a   20.4   20.6   20.2    56   11.4   0.0     S  0.00   3.2     S   20.4   19.9   19.9   26.2  1033.7  0.00   0.0   861    37.03    979     5.4  1.16   6.4   0.000   0.044   27.7    39    0.46   701    1    100.0   30 
 5/12/18 11:30a   21.8   22.1   20.4    53   11.8   0.0   SSE  0.00   8.0   SSE   21.8   21.2   21.2   27.8  1033.3  0.00   0.0   979    42.10   1018     6.9  1.48   7.4   0.000   0.072   27.8    38    0.00   700    1    100.0   30 
 5/12/18 12:00p   22.9   22.9   21.8    50   11.9   0.0   SSE  0.00   8.0   SSE   22.9   22.6   22.6   28.9  1033.1  0.00   0.0  1017    43.74   1169     7.5  1.61   8.6   0.000   0.095   27.8    38    0.58   700    1    100.0   30 
 5/12/18 12:30p   23.7   23.7   22.9    46   11.4   0.0   SSE  0.00   8.0   SSE   23.7   23.5   23.5   28.9  1032.8  0.00   0.0   959    41.24   1181     7.4  1.59   8.9   0.000   0.111   28.1    38    0.00   701    1    100.0   30 
 5/12/18  1:00p   24.9   24.9   23.7    43   11.4   0.0   SSE  0.00  11.3   SSE   24.9   24.6   24.6   30.6  1032.4  0.00   0.0  1074    46.19   1132     8.7  1.86   8.9   0.000   0.137   28.2    38    0.61   702    1    100.0   30 
 5/12/18  1:30p   25.8   25.9   24.7    41   11.5   1.6     S  0.80  12.9     S   25.8   25.3   25.3   31.1  1032.0  0.00   0.0  1057    45.46   1085     8.7  1.86   8.9   0.000   0.155   28.2    38    0.00   701    1    100.0   30 
 5/12/18  2:00p   26.2   26.2   25.8    41   11.9   1.6     S  0.80  12.9     S   26.2   25.8   25.8   31.7  1031.7  0.00   0.0  1053    45.28   1111     8.4  1.80   8.8   0.000   0.163   28.3    38    0.00   701    1    100.0   30 
 5/12/18  2:30p   26.7   26.7   26.1    41   12.3   3.2     S  1.61  14.5   SSE   26.7   26.2   26.2   31.7  1031.5  0.00   0.0   967    41.59   1053     7.7  1.65   8.3   0.000   0.174   28.3    39    0.66   668    1     97.7   30 
 5/12/18  3:00p   27.1   27.2   26.7    40   12.3   3.2     S  1.61   9.7     S   27.1   26.6   26.6   32.4  1031.1  0.00   0.0   955    41.07    988     7.3  1.56   7.7   0.000   0.183   28.4    40    0.63   701    1    100.0   30 
 5/12/18  3:30p   27.7   27.9   27.2    40   12.9   4.8     S  2.41  12.9     S   27.7   27.3   27.3   33.2  1030.9  0.00   0.0   896    38.53    923     6.4  1.37   6.8   0.000   0.196   28.6    40    0.00   701    1    100.0   30 
 5/12/18  4:00p   27.8   28.1   27.7    39   12.6   3.2     S  1.61  14.5     S   27.8   27.4   27.4   33.4  1030.7  0.00   0.0   836    35.95    872     5.5  1.18   6.0   0.000   0.198   28.8    40    0.61   701    1    100.0   30 
 5/12/18  4:30p   28.3   28.5   27.7    40   13.4   4.8     S  2.41  16.1     S   28.3   28.2   28.2   34.2  1030.3  0.00   0.0   756    32.51    802     4.4  0.94   5.0   0.000   0.208   29.1    39    0.00   699    1    100.0   30 
 5/12/18  5:00p   28.1   28.4   28.1    42   14.0   4.8     S  2.41  16.1     S   28.1   28.0   28.0   34.1  1029.9  0.00   0.0   666    28.64    712     3.4  0.73   3.9   0.000   0.204   29.2    39    0.51   698    1    100.0   30 
 5/12/18  5:30p   28.3   28.3   28.1    42   14.1   4.8     S  2.41  11.3     S   28.3   28.3   28.3   34.2  1029.6  0.00   0.0   569    24.47    617     2.5  0.54   2.9   0.000   0.207   29.3    39    0.00   701    1    100.0   30 
 5/12/18  6:00p   28.3   28.6   28.1    43   14.6   3.2   SSE  1.61  12.9   SSE   28.3   28.4   28.4   34.2  1029.3  0.00   0.0   469    20.17    519     1.8  0.39   2.1   0.000   0.208   29.1    40    0.38   676    1     98.8   30 
 5/12/18  6:30p   28.1   28.3   28.1    45   15.0   4.8   SSE  2.41  11.3   SSE   28.1   28.2   28.2   33.3  1029.3  0.00   0.0   363    15.61    415     1.2  0.26   1.4   0.000   0.203   28.7    39    0.00   700    1    100.0   30 
 5/12/18  7:00p   27.3   28.1   27.3    46   14.6   4.8   SSE  2.41  11.3   SSE   27.3   27.2   27.2   31.2  1029.3  0.00   0.0   256    11.01    308     0.7  0.15   0.9   0.000   0.186   28.5    40    0.25   701    1    100.0   30 
 5/12/18  7:30p   26.7   27.3   26.7    47   14.4   3.2   SSE  1.61  12.9   SSE   26.7   26.6   26.6   28.6  1029.5  0.00   0.0   143     6.15    200     0.1  0.02   0.5   0.000   0.174   28.3    40    0.00   699    1    100.0   30 
 5/12/18  8:00p   25.3   26.7   25.3    51   14.4   0.0   SSE  0.00   9.7   SSE   25.3   25.3   25.3   24.1  1029.8  0.00   0.0    30     1.29     88     0.0  0.00   0.0   0.000   0.145   28.2    42    0.08   700    1    100.0   30 
 5/12/18  8:30p   24.2   25.2   24.2    54   14.3   0.0   ---  0.00   0.0   ---   24.2   24.3   24.3   22.9  1030.0  0.00   0.0     9     0.39     16     0.0  0.00   0.0   0.000   0.122   28.1    43    0.00   702    1    100.0   30 
 5/12/18  9:00p   22.6   24.2   22.6    59   14.2   0.0   ---  0.00   0.0   ---   22.6   22.7   22.7   21.2  1030.4  0.00   0.0     0     0.00      0     0.0  0.00   0.0   0.000   0.089   28.1    44    0.03   700    1    100.0   30 
 5/12/18  9:30p   21.1   22.6   21.1    65   14.3   0.0   ---  0.00   0.0   ---   21.1   20.9   20.9   19.4  1030.5  0.00   0.0     0     0.00      0     0.0  0.00   0.0   0.000   0.058   27.9    44    0.00   702    1    100.0   30 
 5/12/18 10:00p   19.7   21.1   19.7    69   13.9   0.0   ---  0.00   0.0   ---   19.7   19.9   19.9   18.3  1030.7  0.00   0.0     0     0.00      0     0.0  0.00   0.0   0.000   0.029   27.8    44    0.03   702    1    100.0   30 
 5/12/18 10:30p   18.7   19.7   18.7    74   14.0   0.0   ---  0.00   0.0   ---   18.7   18.9   18.9   17.4  1030.8  0.00   0.0     0     0.00      0     0.0  0.00   0.0   0.000   0.008   27.8    44    0.00   648    1     94.7   30 
 5/12/18 11:00p   18.3   18.7   18.1    82   15.2   0.0   ---  0.00   0.0   ---   18.3   18.7   18.7   17.2  1030.9  0.00   0.0     0     0.00      0     0.0  0.00   0.0   0.000   0.000   27.8    43    0.03   703    1    100.0   30 
 5/12/18 11:30p   18.1   18.5   18.1    83   15.2   0.0   ---  0.00   0.0   ---   18.1   18.5   18.5   17.0  1030.8  0.00   0.0     0     0.00      0     0.0  0.00   0.0   0.005   0.000   27.8    42    0.00   701    1    100.0   30 
 6/12/18 12:00a   17.4   18.1   17.4    85   14.9   0.0   ---  0.00   0.0   ---   17.4   17.7   17.7   16.2  1030.9  0.00   0.0     0     0.00      0     0.0  0.00   0.0   0.019   0.000   27.8    42    0.03   699    1    100.0   30 
 6/12/18 12:30a   16.8   17.4   16.8    88   14.8   0.0   ---  0.00   0.0   ---   16.8   17.1   17.1   15.5  1030.8  0.00   0.0     0     0.00      0     0.0  0.00   0.0   0.032   0.000   27.8    42    0.00   703    1    100.0   30 
 6/12/18  1:00a   16.1   16.8   16.1    89   14.2   0.0   ---  0.00   0.0   ---   16.1   16.3   16.3   14.7  1030.7  0.00   0.0     0     0.00      0     0.0  0.00   0.0   0.047   0.000   27.8    41    0.00   700    1    100.0   30 
 6/12/18  1:30a   15.8   16.1   15.8    90   14.1   0.0   ---  0.00   0.0   ---   15.8   15.9   15.9   14.4  1030.2  0.00   0.0     0     0.00      0     0.0  0.00   0.0   0.053   0.000   27.9    41    0.00   650    1     95.0   30 
 6/12/18  2:00a   15.2   15.8   15.2    90   13.5   0.0   ---  0.00   0.0   ---   15.2   15.3   15.3   13.7  1030.2  0.00   0.0     0     0.00      0     0.0  0.00   0.0   0.066   0.000   27.8    41    0.00   699    1    100.0   30 
 6/12/18  2:30a   14.6   15.2   14.5    92   13.3   0.0   ---  0.00   0.0   ---   14.6   14.7   14.7   13.1  1029.8  0.00   0.0     0     0.00      0     0.0  0.00   0.0   0.078   0.000   27.8    40    0.00   702    1    100.0   30 
 6/12/18  3:00a   14.2   14.7   14.1    92   12.9   0.0   ---  0.00   0.0   ---   14.2   14.3   14.3   12.7  1029.4  0.00   0.0     0     0.00      0     0.0  0.00   0.0   0.086   0.000   27.9    40    0.00   673    1     98.4   30 
 6/12/18  3:30a   13.6   14.3   13.6    92   12.3   0.0   ---  0.00   0.0   ---   13.6   13.7   13.7   12.0  1029.5  0.00   0.0     0     0.00      0     0.0  0.00   0.0   0.098   0.000   27.8    40    0.00   701    1    100.0   30 
 6/12/18  4:00a   12.8   13.6   12.8    92   11.6   0.0   ---  0.00   0.0   ---   12.8   12.9   12.9   11.2  1029.3  0.00   0.0     0     0.00      0     0.0  0.00   0.0   0.115   0.000   27.8    39    0.00   701    1    100.0   30 
 6/12/18  4:30a   12.9   12.9   12.7    93   11.8   0.0   ---  0.00   0.0   ---   12.9   13.1   13.1   11.4  1029.2  0.00   0.0     0     0.00      0     0.0  0.00   0.0   0.112   0.000   27.8    39    0.00   701    1    100.0   30 
 6/12/18  5:00a   13.1   13.2   12.9    94   12.2   0.0   ---  0.00   0.0   ---   13.1   13.2   13.2   11.6  1029.3  0.00   0.0     0     0.00      0     0.0  0.00   0.0   0.109   0.000   27.7    39    0.00   701    1    100.0   30 
 6/12/18  5:30a   12.2   13.1   12.2    93   11.1   0.0   ---  0.00   0.0   ---   12.2   12.3   12.3   10.6  1029.4  0.00   0.0     0     0.00      0     0.0  0.00   0.0   0.127   0.000   27.6    39    0.00   702    1    100.0   30 
 6/12/18  6:00a   12.3   12.3   12.1    94   11.3   0.0   ---  0.00   0.0   ---   12.3   12.4   12.4   10.7  1029.7  0.00   0.0     3     0.13     11     0.0  0.00   0.0   0.126   0.000   27.4    39    0.00   702    1    100.0   30 
 6/12/18  6:30a   12.5   12.5   12.1    95   11.7   0.0   ---  0.00   0.0   ---   12.5   12.6   12.6   11.3  1029.9  0.00   0.0    28     1.20     58     0.0  0.00   0.0   0.122   0.000   27.3    39    0.00   701    1    100.0   30 
 6/12/18  7:00a   13.9   13.9   12.5    95   13.2   0.0   ---  0.00   0.0   ---   13.9   14.1   14.1   13.6  1030.2  0.00   0.0   100     4.30    146     0.0  0.00   0.0   0.091   0.000   27.3    38    0.03   701    1    100.0   30 
 6/12/18  7:30a   15.7   15.7   13.9    93   14.5   0.0   ---  0.00   0.0   ---   15.7   15.9   15.9   19.4  1030.5  0.00   0.0   200     8.60    257     0.1  0.02   0.5   0.056   0.000   27.3    38    0.00   702    1    100.0   30 
 6/12/18  8:00a   17.9   17.9   15.7    87   15.7   0.0   ---  0.00   0.0   ---   17.9   18.3   18.3   23.5  1030.6  0.00   0.0   302    12.99    360     0.7  0.15   1.0   0.008   0.000   27.4    39    0.13   700    1    100.0   30 
 6/12/18  8:30a   20.9   20.9   17.9    76   16.6   0.0   ---  0.00   0.0   ---   20.9   21.4   21.4   27.9  1030.5  0.00   0.0   426    18.32    485     1.4  0.30   1.7   0.000   0.054   27.8    39    0.00   701    1    100.0   30 
 6/12/18  9:00a   24.6   24.6   20.9    58   15.8   0.0   NNE  0.00  16.1    NE   24.6   24.9   24.9   32.1  1030.2  0.00   0.0   546    23.48    606     2.1  0.45   2.5   0.000   0.131   27.8    40    0.28   700    1    100.0   30 
 6/12/18  9:30a   26.9   26.9   24.6    48   15.0   8.0   NNE  4.02  27.4   NNE   26.9   26.9   26.9   32.7  1030.2  0.00   0.0   503    21.63    626     2.6  0.56   3.2   0.000   0.179   27.8    41    0.00   700    1    100.0   30 
 6/12/18 10:00a   28.0   28.0   26.9    45   15.0   8.0   NNE  4.02  25.7   NNE   28.0   28.1   28.1   34.8  1030.0  0.00   0.0   712    30.62    775     3.9  0.84   4.4   0.000   0.201   27.8    42    0.46   700    1    100.0   30 
 6/12/18 10:30a   29.3   29.3   28.0    43   15.4   6.4   NNE  3.22  24.1    NE   29.3   29.7   29.7   36.4  1029.7  0.00   0.0   811    34.88    860     5.0  1.07   5.5   0.000   0.228   27.9    43    0.00   699    1    100.0   30 
 6/12/18 11:00a   29.6   30.1   29.3    41   15.0   8.0   NNE  4.02  27.4    NE   29.6   29.8   29.8   36.3  1029.3  0.00   0.0   870    37.41    933     6.0  1.29   6.5   0.000   0.235   28.1    45    0.63   701    1    100.0   30 
 6/12/18 11:30a   30.8   30.9   29.6    38   14.9   9.7     N  4.83  22.5    NE   30.8   30.7   30.7   37.2  1028.9  0.00   0.0   950    40.86   1014     7.0  1.50   7.7   0.000   0.260   28.3    45    0.00   701    1    100.0   30 
 6/12/18 12:00p   31.5   31.6   30.9    37   15.0   8.0   NNE  4.02  27.4     N   31.5   31.4   31.4   37.8  1028.7  0.00   0.0  1004    43.18   1074     7.8  1.67   8.3   0.000   0.274   28.5    44    0.74   701    1    100.0   30 
 6/12/18 12:30p   31.9   31.9   31.3    36   15.0   8.0   NNE  4.02  29.0   NNE   31.9   31.9   31.9   38.0  1028.5  0.00   0.0  1020    43.87   1116     8.5  1.82   9.2   0.000   0.284   28.9    45    0.00   674    1     98.5   30 
 6/12/18  1:00p   32.1   32.3   31.9    37   15.5   8.0   NNE  4.02  24.1     N   32.1   32.2   32.2   38.1  1028.1  0.00   0.0   930    40.00   1081     8.2  1.76   9.1   0.000   0.286   29.4    46    0.74   702    1    100.0   30 
 6/12/18  1:30p   32.8   32.8   32.1    34   14.9   8.0   NNE  4.02  19.3     N   32.8   32.8   32.8   38.7  1027.7  0.00   0.0  1041    44.77   1065     9.1  1.95   9.2   0.000   0.302   29.6    46    0.00   698    1    100.0   30 
 6/12/18  2:00p   33.3   33.5   32.9    31   13.9   8.0   NNE  4.02  25.7    NE   33.3   33.1   33.1   38.9  1027.1  0.00   0.0  1023    43.99   1035     8.8  1.89   9.0   0.000   0.313   29.9    45    0.81   702    1    100.0   30 
 6/12/18  2:30p   33.7   33.7   33.3    31   14.2  11.3   NNE  5.63  24.1    NE   33.7   33.7   33.7   39.5  1026.6  0.00   0.0  1010    43.44   1042     8.0  1.71   8.7   0.000   0.321   30.2    46    0.00   701    1    100.0   30 
 6/12/18  3:00p   34.8   34.8   33.8    27   13.1   8.0   NNE  4.02  27.4    NE   34.8   34.4   34.4   40.3  1026.5  0.00   0.0   961    41.33    995     7.6  1.63   8.1   0.000   0.344   30.1    47    0.79   701    1    100.0   30 
 6/12/18  3:30p   35.1   35.1   34.7    27   13.3   8.0   NNW  4.02  24.1    NE   35.1   34.7   34.7   40.6  1026.1  0.00   0.0   898    38.62    935     6.7  1.44   7.2   0.000   0.348   29.8    47    0.00   702    1    100.0   30 
 6/12/18  4:00p   35.3   35.3   34.8    28   14.0   8.0     N  4.02  27.4   NNW   35.3   35.2   35.2   41.1  1025.7  0.00   0.0   826    35.52    860     5.6  1.20   6.1   0.000   0.353   29.9    46    0.71   655    1     95.8   30 
 6/12/18  4:30p   35.7   35.7   35.3    27   13.8   8.0     N  4.02  20.9    NE   35.7   35.5   35.5   41.5  1025.4  0.00   0.0   750    32.25    786     4.6  0.99   5.0   0.000   0.361   30.1    45    0.00   701    1    100.0   30 
 6/12/18  5:00p   35.7   35.8   35.3    27   13.8   6.4   NNE  3.22  19.3   NNW   35.7   35.5   35.5   41.3  1025.2  0.00   0.0   650    27.95    707     3.4  0.73   4.0   0.000   0.361   30.1    44    0.61   699    1    100.0   30 
 6/12/18  5:30p   35.3   35.7   35.2    28   14.0   8.0     N  4.02  22.5   NNE   35.3   35.2   35.2   41.0  1024.8  0.00   0.0   559    24.04    606     2.6  0.56   3.0   0.000   0.353   29.9    44    0.00   703    1    100.0   30 
 6/12/18  6:00p   35.0   35.3   35.0    28   13.8   8.0   NNE  4.02  24.1    NE   35.0   34.8   34.8   40.2  1024.6  0.00   0.0   452    19.44    506     1.9  0.41   2.2   0.000   0.347   29.5    42    0.48   701    1    100.0   30 
 6/12/18  6:30p   34.8   35.1   34.8    27   13.0   8.0   NNE  4.02  24.1    NE   34.8   34.3   34.3   39.1  1024.5  0.00   0.0   342    14.71    399     1.2  0.26   1.5   0.000   0.343   29.3    42    0.00   702    1    100.0   30 
 6/12/18  7:00p   34.6   34.8   34.6    29   14.0   6.4   NNE  3.22  17.7   NNE   34.6   34.5   34.5   38.2  1024.6  0.00   0.0   226     9.72    297     0.8  0.17   1.0   0.000   0.339   29.2    43    0.33   700    1    100.0   30 
 6/12/18  7:30p   33.7   34.6   33.7    30   13.7   3.2   NNE  1.61  17.7    NE   33.7   33.4   33.4   34.3  1024.8  0.00   0.0    73     3.14    165     0.2  0.04   0.6   0.000   0.319   29.3    43    0.00   699    1    100.0   30 
 6/12/18  8:00p   32.9   33.6   32.9    31   13.5   1.6   NNE  0.80  11.3   NNE   32.9   32.6   32.6   31.6  1024.9  0.00   0.0    32     1.38     47     0.0  0.00   0.0   0.000   0.303   29.2    43    0.08   700    1    100.0   30 
 6/12/18  8:30p   31.6   32.9   31.6    34   13.8   0.0   ---  0.00   0.0   ---   31.6   30.9   30.9   29.7  1024.9  0.00   0.0     9     0.39     21     0.0  0.00   0.0   0.000   0.275   28.8    43    0.00   701    1    100.0   30 
 6/12/18  9:00p   29.6   31.6   29.6    40   14.5   0.0   ---  0.00   0.0   ---   29.6   29.6   29.6   28.3  1025.1  0.00   0.0     0     0.00      0     0.0  0.00   0.0   0.000   0.234   28.4    43    0.03   701    1    100.0   30 
 6/12/18  9:30p   27.7   29.6   27.7    45   14.7   0.0   ---  0.00   0.0   ---   27.7   27.6   27.6   26.2  1025.2  0.00   0.0     0     0.00      0     0.0  0.00   0.0   0.000   0.194   28.2    45    0.00   701    1    100.0   30 
 6/12/18 10:00p   25.9   27.6   25.9    50   14.7   0.0   ---  0.00   0.0   ---   25.9   26.0   26.0   24.7  1025.2  0.00   0.0     0     0.00      0     0.0  0.00   0.0   0.000   0.159   28.1    46    0.05   701    1    100.0   30 
 6/12/18 10:30p   24.6   25.9   24.6    55   15.0   0.0   ---  0.00   0.0   ---   24.6   24.8   24.8   23.4  1025.3  0.00   0.0     0     0.00      0     0.0  0.00   0.0   0.000   0.131   28.1    49    0.00   703    1    100.0   30 
 6/12/18 11:00p   23.4   24.6   23.4    62   15.7   0.0   ---  0.00   0.0   ---   23.4   23.9   23.9   22.7  1025.3  0.00   0.0     0     0.00      0     0.0  0.00   0.0   0.000   0.106   28.2    51    0.05   700    1    100.0   30 
 6/12/18 11:30p   22.6   23.4   22.6    64   15.4   0.0   ---  0.00   0.0   ---   22.6   22.8   22.8   21.5  1025.0  0.00   0.0     0     0.00      0     0.0  0.00   0.0   0.000   0.088   28.1    50    0.00   699    1    100.0   30 
 7/12/18 12:00a   21.9   22.6   21.9    66   15.2   0.0   ---  0.00   0.0   ---   21.9   22.0   22.0   20.7  1025.0  0.00   0.0     0     0.00      0     0.0  0.00   0.0   0.000   0.074   27.9    52    0.03   701    1    100.0   30 
 7/12/18 12:30a   26.2   26.2   21.9    45   13.3   1.6   NNE  0.80  11.3   NNE   26.2   26.0   26.0   24.6  1025.1  0.00   0.0     0     0.00      0     0.0  0.00   0.0   0.000   0.163   27.9    53    0.00   700    1    100.0   30 
 7/12/18  1:00a   29.1   29.1   26.2    36   12.5   6.4   NNE  3.22  17.7    NE   29.1   28.8   28.8   27.4  1024.9  0.00   0.0     0     0.00      0     0.0  0.00   0.0   0.000   0.225   27.9    54    0.08   701    1    100.0   30 
 7/12/18  1:30a   29.1   29.1   28.9    36   12.5   4.8   NNE  2.41  14.5     N   29.1   28.8   28.8   27.4  1024.9  0.00   0.0     0     0.00      0     0.0  0.00   0.0   0.000   0.225   27.9    54    0.00   701    1    100.0   30 
 7/12/18  2:00a   29.1   29.3   29.1    36   12.5   4.8     N  2.41  16.1   NNW   29.1   28.8   28.8   27.4  1024.8  0.00   0.0     0     0.00      0     0.0  0.00   0.0   0.000   0.225   27.8    54    0.10   702    1    100.0   30 
 7/12/18  2:30a   29.1   29.1   29.0    36   12.5   3.2   NNE  1.61  19.3     N   29.1   28.8   28.8   27.3  1024.6  0.00   0.0     0     0.00      0     0.0  0.00   0.0   0.000   0.223   27.8    54    0.00   702    1    100.0   30 
 7/12/18  3:00a   29.1   29.1   29.0    36   12.5   4.8   NNE  2.41  17.7    NE   29.1   28.8   28.8   27.3  1024.6  0.00   0.0     0     0.00      0     0.0  0.00   0.0   0.000   0.223   27.8    54    0.10   701    1    100.0   30 
 7/12/18  3:30a   29.2   29.2   29.0    35   12.2   4.8   NNE  2.41  22.5    NE   29.2   28.8   28.8   27.3  1024.5  0.00   0.0     0     0.00      0     0.0  0.00   0.0   0.000   0.227   27.8    53    0.00   701    1    100.0   30 
 7/12/18  4:00a   29.3   29.3   29.2    35   12.2   6.4   NNE  3.22  22.5     N   29.3   28.8   28.8   27.4  1024.6  0.00   0.0     0     0.00      0     0.0  0.00   0.0   0.000   0.228   27.8    54    0.13   702    1    100.0   30 
 7/12/18  4:30a   29.3   29.4   29.3    35   12.3   6.4   NNE  3.22  27.4   NNE   29.3   28.9   28.9   27.4  1024.8  0.00   0.0     0     0.00      0     0.0  0.00   0.0   0.000   0.229   27.8    53    0.00   678    1     99.1   30 
 7/12/18  5:00a   29.2   29.3   29.2    35   12.1   6.4   NNE  3.22  25.7   NNE   29.2   28.8   28.8   27.3  1025.1  0.00   0.0     0     0.00      0     0.0  0.00   0.0   0.000   0.226   27.8    52    0.13   700    1    100.0   30 
 7/12/18  5:30a   28.9   29.2   28.9    36   12.3   6.4   NNE  3.22  29.0   NNW   28.9   28.6   28.6   27.2  1025.5  0.00   0.0     0     0.00      0     0.0  0.00   0.0   0.000   0.220   27.8    52    0.00   701    1    100.0   30 
 7/12/18  6:00a   28.6   28.9   28.6    36   12.1   4.8   NNE  2.41  24.1    NE   28.6   28.2   28.2   26.7  1026.0  0.00   0.0     2     0.09      9     0.0  0.00   0.0   0.000   0.214   27.8    51    0.08   701    1    100.0   30 
 7/12/18  6:30a   28.4   28.7   28.4    36   11.9   3.2   NNE  1.61  25.7     N   28.4   27.9   27.9   26.7  1026.7  0.00   0.0    22     0.95     40     0.0  0.00   0.0   0.000   0.211   27.8    52    0.00   703    1    100.0   30 
 7/12/18  7:00a   28.6   28.6   28.4    37   12.5   4.8   NNE  2.41  20.9    NE   28.6   28.3   28.3   27.9  1026.9  0.00   0.0    90     3.87    165     0.0  0.00   0.0   0.000   0.214   27.7    51    0.08   701    1    100.0   30 
 7/12/18  7:30a   29.0   29.0   28.6    37   12.8   6.4   NNE  3.22  27.4   NNE   29.0   28.8   28.8   31.7  1026.9  0.00   0.0   177     7.61    211     0.3  0.06   0.6   0.000   0.222   27.7    51    0.00   700    1    100.0   30 
 7/12/18  8:00a   29.3   29.3   29.0    36   12.7   6.4   NNE  3.22  25.7    NE   29.3   29.0   29.0   32.9  1027.0  0.00   0.0   252    10.84    348     0.8  0.17   1.1   0.000   0.229   27.7    51    0.23   700    1    100.0   30 
 7/12/18  8:30a   30.2   30.2   29.3    35   13.1   8.0   NNE  4.02  30.6   NNE   30.2   29.8   29.8   35.7  1027.3  0.00   0.0   404    17.37    455     1.4  0.30   1.7   0.000   0.248   27.7    49    0.00   702    1    100.0   30 
 7/12/18  9:00a   30.9   30.9   30.2    33   12.7  11.3   NNE  5.63  33.8    NE   30.9   30.1   30.1   36.2  1027.3  0.00   0.0   506    21.76    555     2.0  0.43   2.4   0.000   0.262   26.9    47    0.43   700    1    100.0   30 
 7/12/18  9:30a   31.6   31.6   30.9    33   13.4  11.3   NNE  5.63  35.4    NE   31.6   30.9   30.9   37.2  1027.1  0.00   0.0   606    26.06    654     2.9  0.62   3.3   0.000   0.277   26.5    47    0.00   700    1    100.0   30 
 7/12/18 10:00a   32.8   32.8   31.7    31   13.5  11.3   NNE  5.63  30.6     N   32.8   32.5   32.5   38.8  1026.8  0.00   0.0   699    30.06    738     3.9  0.84   4.4   0.000   0.302   26.6    47    0.58   703    1    100.0   30 
 7/12/18 10:30a   33.6   33.7   32.9    29   13.1   9.7   NNW  4.83  29.0    NE   33.6   33.2   33.2   39.5  1026.7  0.00   0.0   781    33.59    819     4.9  1.05   5.4   0.000   0.318   26.8    45    0.00   700    1    100.0   30 
 7/12/18 11:00a   33.6   33.9   33.5    29   13.1  14.5     N  7.24  43.5    NE   33.6   33.1   33.0   38.6  1026.4  0.00   0.0   857    36.86    896     6.0  1.29   6.5   0.000   0.317   27.3    43    0.74   701    1    100.0   30 
 7/12/18 11:30a   34.2   34.2   33.6    28   13.1  12.9   NNE  6.44  35.4   NNW   34.2   33.8   33.7   39.3  1025.9  0.00   0.0   892    38.36    983     6.8  1.46   7.5   0.000   0.331   27.8    42    0.00   699    1    100.0   30 
 7/12/18 12:00p   35.1   35.1   34.2    27   13.3  11.3   NNE  5.63  41.8   NNE   35.1   34.8   34.8   40.4  1025.8  0.00   0.0   939    40.38   1039     7.6  1.63   8.3   0.000   0.350   28.2    43    0.79   700    1    100.0   30 
 7/12/18 12:30p   34.9   35.2   34.6    27   13.1  12.9     N  6.44  40.2    NE   34.9   34.4   34.4   40.3  1025.7  0.00   0.0   863    37.11   1046     7.4  1.59   8.6   0.000   0.345   28.5    44    0.00   700    1    100.0   30 
 7/12/18  1:00p   35.2   35.3   34.8    27   13.4  14.5   NNE  7.24  35.4   NNE   35.2   34.8   34.8   40.1  1025.1  0.00   0.0  1034    44.47   1172     8.8  1.89   9.5   0.000   0.351   28.6    47    0.84   698    1    100.0   30 
 7/12/18  1:30p   35.4   35.5   35.1    27   13.5  16.1   NNE  8.05  46.7    NE   35.4   35.1   35.1   40.0  1024.5  0.00   0.0  1025    44.08   1153     8.5  1.82   9.6   0.000   0.355   28.3    45    0.00   701    1    100.0   30 
 7/12/18  2:00p   35.7   35.7   35.4    27   13.8  16.1   NNE  8.05  43.5   ENE   35.7   35.5   35.5   41.1  1024.1  0.00   0.0   769    33.07    956     7.4  1.59   9.4   0.000   0.361   27.8    47    0.86   676    1     98.8   30 
 7/12/18  2:30p   36.2   36.2   35.7    26   13.6  14.5   NNE  7.24  41.8   NNE   36.2   36.0   36.0   41.7  1023.6  0.00   0.0   775    33.33   1107     6.8  1.46   8.9   0.000   0.372   27.6    49    0.00   702    1    100.0   30 
 7/12/18  3:00p   36.7   36.7   35.9    26   14.0  14.5   NNE  7.24  37.0    NE   36.7   36.7   36.7   42.4  1023.3  0.00   0.0   809    34.79   1181     6.6  1.41   8.5   0.000   0.382   27.8    51    0.76   698    1    100.0   30 
 7/12/18  3:30p   37.2   37.3   36.6    24   13.3  12.9   NNE  6.44  32.2   NNE   37.2   37.1   37.1   42.4  1022.7  0.00   0.0   878    37.76    976     6.6  1.41   7.3   0.000   0.394   27.9    50    0.00   699    1    100.0   30 
 7/12/18  4:00p   36.8   37.4   36.8    24   13.0  12.9   NNE  6.44  38.6     E   36.8   36.5   36.5   41.0  1022.6  0.00   0.0   472    20.30    886     4.1  0.88   6.4   0.000   0.385   27.8    48    0.69   691    1    100.0   30 
 7/12/18  4:30p   36.9   37.2   36.8    23   12.4  11.3   NNE  5.63  35.4   NNE   36.9   36.4   36.4   40.7  1022.3  0.00   0.0   410    17.63    661     3.1  0.66   4.0   0.000   0.388   28.4    48    0.00   701    1    100.0   30 
 7/12/18  5:00p   36.9   37.2   36.9    23   12.3   9.7   NNE  4.83  29.0   NNE   36.9   36.3   36.3   38.8  1022.1  0.00   0.0   238    10.24    480     2.0  0.43   3.1   0.000   0.387   27.9    41    0.41   688    1    100.0   30 
 7/12/18  5:30p   36.3   36.9   36.3    24   12.5   4.8   NNE  2.41  20.9    NW   36.3   35.8   35.8   36.8  1022.0  0.00   0.0   122     5.25    160     0.9  0.19   1.0   0.000   0.375   27.3    37    0.00   697    1    100.0   30 
 7/12/18  6:00p   36.0   36.4   36.0    25   12.9   6.4   NNE  3.22  20.9     N   36.0   35.6   35.6   37.0  1022.0  0.00   0.0   130     5.59    185     0.8  0.17   1.1   0.000   0.368   27.3    40    0.20   700    1    100.0   30 
 7/12/18  6:30p   36.3   36.3   35.8    25   13.2   4.8     N  2.41  19.3    NE   36.3   36.1   36.1   38.4  1021.6  0.00   0.0   163     7.01    339     0.5  0.11   1.0   0.000   0.375   27.6    42    0.00   698    1    100.0   30 
 7/12/18  7:00p   35.7   36.3   35.7    25   12.6   8.0   NNE  4.02  27.4   WNW   35.7   35.2   35.2   36.9  1022.1  0.00   0.0   116     4.99    248     0.7  0.15   0.9   0.000   0.362   27.8    43    0.20   698    1    100.0   30 
 7/12/18  7:30p   34.1   35.7   34.1    28   13.0   8.0   NNE  4.02  33.8     N   34.1   33.6   33.6   34.9  1022.2  0.00   0.0   101     4.34    160     0.0  0.00   0.5   0.000   0.328   27.8    43    0.00   699    1    100.0   30 
 7/12/18  8:00p   33.3   34.1   33.3    29   12.9   4.8   NNE  2.41  22.5    NE   33.3   32.8   32.8   31.9  1022.2  0.00   0.0    48     2.06     74     0.0  0.00   0.0   0.000   0.313   27.8    43    0.15   701    1    100.0   30 
 7/12/18  8:30p   32.6   33.3   32.6    31   13.2   6.4   NNE  3.22  24.1   NNE   32.6   32.2   32.2   30.7  1022.3  0.00   0.0     7     0.30     21     0.0  0.00   0.0   0.000   0.296   27.8    43    0.00   678    1     99.1   30 
 7/12/18  9:00p   31.9   32.6   31.9    32   13.2   3.2   NNE  1.61  19.3   NNE   31.9   31.3   31.3   29.8  1022.4  0.00   0.0     0     0.00      0     0.0  0.00   0.0   0.000   0.284   27.7    43    0.08   702    1    100.0   30 
 7/12/18  9:30p   31.6   31.9   31.6    33   13.3   4.8     N  2.41  19.3    NE   31.6   30.8   30.8   29.3  1022.7  0.00   0.0     0     0.00      0     0.0  0.00   0.0   0.000   0.275   27.6    43    0.00   701    1    100.0   30 
 7/12/18 10:00p   30.9   31.6   30.9    35   13.7   0.0     N  0.00  11.3   NNE   30.9   30.3   30.3   28.8  1022.9  0.00   0.0     0     0.00      0     0.0  0.00   0.0   0.000   0.263   27.4    42    0.10   701    1    100.0   30 
 7/12/18 10:30p   31.0   31.1   30.8    34   13.3   0.0   NNE  0.00   9.7   NNE   31.0   30.3   30.3   28.8  1023.2  0.00   0.0     0     0.00      0     0.0  0.00   0.0   0.000   0.264   27.4    42    0.00   671    1     98.1   30 
 7/12/18 11:00p   30.7   31.0   30.6    35   13.5   1.6    SW  0.80  12.9    SW   30.7   30.2   30.2   28.7  1024.7  0.00   0.0     0     0.00      0     0.0  0.00   0.0   0.000   0.257   27.2    42    0.08   700    1    100.0   30 
 7/12/18 11:30p   30.2   30.7   30.2    36   13.4   0.0   NNW  0.00   4.8   NNW   30.2   29.9   29.9   28.4  1024.0  0.00   0.0     0     0.00      0     0.0  0.00   0.0   0.000   0.247   27.1    42    0.00   702    1    100.0   30 
 8/12/18 12:00a   29.6   30.2   29.4    38   13.7   0.0   NNW  0.00   8.0   NNW   29.6   29.4   29.4   27.9  1025.0  0.00   0.0     0     0.00      0     0.0  0.00   0.0   0.000   0.234   26.9    42    0.08   701    1    100.0   30 
 8/12/18 12:30a   24.4   29.6   24.4    52   13.9   3.2    SW  1.61  27.4     W   24.4   24.5   24.5   23.1  1025.2  0.00   0.0     0     0.00      0     0.0  0.00   0.0   0.000   0.127   26.9    43    0.00   701    1    100.0   30 
 8/12/18  1:00a   23.6   24.4   23.6    57   14.6   0.0    SW  0.00   3.2    SW   23.6   23.9   23.9   22.4  1025.4  0.00   0.0     0     0.00      0     0.0  0.00   0.0   0.000   0.110   26.9    43    0.05   700    1    100.0   30 
 8/12/18  1:30a   23.1   23.6   23.1    59   14.7   0.0   ---  0.00   0.0   ---   23.1   23.4   23.4   21.9  1025.6  0.00   0.0     0     0.00      0     0.0  0.00   0.0   0.000   0.100   26.8    44    0.00   702    1    100.0   30 
 8/12/18  2:00a   22.9   23.1   22.9    61   15.0   0.0   ---  0.00   0.0   ---   22.9   23.2   23.2   21.7  1025.4  0.00   0.0     0     0.00      0     0.0  0.00   0.0   0.000   0.095   26.8    45    0.05   701    1    100.0   30 
 8/12/18  2:30a   22.7   22.9   22.6    62   15.0   0.0   ---  0.00   0.0   ---   22.7   22.9   22.9   21.5  1025.6  0.00   0.0     0     0.00      0     0.0  0.00   0.0   0.000   0.090   26.8    45    0.00   701    1    100.0   30 
 8/12/18  3:00a   22.7   22.7   22.7    63   15.3   0.0   ---  0.00   0.0   ---   22.7   22.9   22.9   21.6  1025.8  0.00   0.0     0     0.00      0     0.0  0.00   0.0   0.000   0.090   26.8    47    0.03   701    1    100.0   30 
 8/12/18  3:30a   22.5   22.7   22.5    63   15.1   0.0   ---  0.00   0.0   ---   22.5   22.7   22.7   21.3  1025.9  0.00   0.0     0     0.00      0     0.0  0.00   0.0   0.000   0.087   26.8    48    0.00   697    1    100.0   30 
 8/12/18  4:00a   22.6   22.6   22.5    63   15.2   0.0   ---  0.00   0.0   ---   22.6   22.8   22.8   21.4  1025.5  0.00   0.0     0     0.00      0     0.0  0.00   0.0   0.000   0.088   26.8    48    0.03   696    1    100.0   30 
 8/12/18  4:30a   22.6   22.7   22.6    63   15.2   0.0    SW  0.00   9.7    SW   22.6   22.8   22.8   21.4  1025.5  0.00   0.0     0     0.00      0     0.0  0.00   0.0   0.000   0.089   26.7    48    0.00   702    1    100.0   30 
 8/12/18  5:00a   22.2   22.6   22.2    63   14.8   0.0    SW  0.00   4.8    SW   22.2   22.3   22.3   20.8  1025.3  0.00   0.0     0     0.00      0     0.0  0.00   0.0   0.000   0.081   26.8    48    0.03   700    1    100.0   30 
 8/12/18  5:30a   22.2   22.2   22.2    62   14.6   0.0   ---  0.00   0.0   ---   22.2   22.3   22.3   20.8  1025.6  0.00   0.0     0     0.00      0     0.0  0.00   0.0   0.000   0.081   26.7    49    0.00   678    1     99.1   30 
 8/12/18  6:00a   22.2   22.2   22.2    64   15.0   0.0   ---  0.00   0.0   ---   22.2   22.3   22.3   20.9  1025.5  0.00   0.0     0     0.00      0     0.0  0.00   0.0   0.000   0.080   26.7    49    0.00   699    1    100.0   30 
 8/12/18  6:30a   21.7   22.2   21.6    68   15.5   0.0   ---  0.00   0.0   ---   21.7   21.8   21.8   20.4  1026.4  0.00   0.0     5     0.22     12     0.0  0.00   0.0   0.000   0.069   26.7    49    0.00   702    1    100.0   30 
 8/12/18  7:00a   21.6   21.7   21.3    67   15.2   1.6    SW  0.80  19.3   WSW   21.6   21.7   21.7   20.3  1027.5  0.00   0.0     6     0.26     14     0.0  0.00   0.0   0.000   0.068   26.7    50    0.03   699    1    100.0   30 
 8/12/18  7:30a   22.5   22.5   21.6    64   15.3   0.0   ---  0.00   0.0   ---   22.5   22.7   22.7   23.9  1027.2  0.00   0.0    86     3.70    221     0.0  0.00   0.0   0.000   0.087   26.6    50    0.00   700    1    100.0   30 
 8/12/18  8:00a   22.9   22.9   22.5    66   16.2   0.0    SW  0.00   3.2    SW   22.9   23.4   23.4   24.3  1027.3  0.00   0.0    75     3.23    105     0.0  0.00   0.0   0.000   0.095   26.6    49    0.05   701    1    100.0   30 
 8/12/18  8:30a   23.2   23.2   22.9    65   16.3   0.0    SW  0.00   1.6    SW   23.2   23.8   23.8   25.7  1027.5  0.00   0.0   131     5.63    190     0.4  0.09   0.9   0.000   0.102   26.7    49    0.00   702    1    100.0   30 
 8/12/18  9:00a   24.2   24.2   23.2    60   16.0   0.0   WNW  0.00   8.0   WNW   24.2   24.7   24.7   27.8  1027.4  0.00   0.0   221     9.50    345     1.3  0.28   1.9   0.000   0.123   26.7    49    0.13   700    1    100.0   30 
 8/12/18  9:30a   25.7   25.7   24.2    54   15.7   0.0   WNW  0.00   6.4   WNW   25.7   25.9   25.9   29.3  1027.6  0.00   0.0   260    11.18    513     1.5  0.32   2.3   0.000   0.153   26.7    49    0.00   698    1    100.0   30 
 8/12/18 10:00a   26.6   26.6   25.7    51   15.6   0.0   ---  0.00   0.0   ---   26.6   26.7   26.7   29.3  1027.6  0.00   0.0   232     9.98    304     1.7  0.36   2.2   0.000   0.171   26.7    49    0.18   703    1    100.0   30 
 8/12/18 10:30a   27.1   27.1   26.6    48   15.1   0.0   WNW  0.00   6.4   WNW   27.1   27.0   27.0   29.3  1028.0  0.00   0.0   229     9.85    272     1.8  0.39   2.2   0.000   0.182   26.7    48    0.00   699    1    100.0   30 
 8/12/18 11:00a   27.3   27.3   27.1    50   15.9   0.0   ---  0.00   0.0   ---   27.3   27.4   27.4   29.3  1028.2  0.00   0.0   206     8.86    230     1.7  0.36   1.9   0.000   0.186   26.7    49    0.15   698    1    100.0   30 
 8/12/18 11:30a   27.3   27.3   27.1    49   15.7   0.0   WNW  0.00   6.4   WNW   27.3   27.4   27.4   29.4  1028.3  0.00   0.0   214     9.20    367     1.9  0.41   3.3   0.000   0.187   26.7    48    0.00   701    1    100.0   30 
 8/12/18 12:00p   28.6   28.6   27.4    44   15.1   0.0   WNW  0.00   1.6   WNW   28.6   28.9   28.9   32.7  1028.0  0.00   0.0   373    16.04    471     3.4  0.73   4.0   0.000   0.213   26.7    48    0.20   701    1    100.0   30 
 8/12/18 12:30p   29.1   29.2   28.6    43   15.2   0.0   ---  0.00   0.0   ---   29.1   29.4   29.4   33.1  1028.4  0.00   0.0   365    15.70    489     3.4  0.73   4.2   0.000   0.223   26.8    47    0.00   701    1    100.0   30 
 8/12/18  1:00p   27.6   29.1   27.6    54   17.4   0.0   WNW  0.00   4.8   WNW   27.6   28.1   28.1   29.9  1027.7  0.00   0.0   202     8.69    248     2.0  0.43   2.4   0.000   0.192   26.8    47    0.20   698    1    100.0   30 
 8/12/18  1:30p   28.8   28.8   27.4    46   16.1   0.0   WNW  0.00  11.3    NW   28.8   29.5   29.5   33.0  1028.0  0.00   0.0   346    14.88    496     3.4  0.73   4.5   0.000   0.219   26.8    47    0.00   703    1    100.0   30 
 8/12/18  2:00p   28.9   29.1   28.8    45   15.8   1.6    NE  0.80  11.3    NE   28.9   29.5   29.5   31.1  1027.0  0.00   0.0   193     8.30    308     1.9  0.41   3.0   0.000   0.220   26.8    46    0.20   700    1    100.0   30 
 8/12/18  2:30p   29.2   29.2   28.9    43   15.4   1.6    NE  0.80  11.3    NE   29.2   29.6   29.6   32.6  1026.7  0.00   0.0   298    12.82    374     2.8  0.60   3.4   0.000   0.227   26.8    46    0.00   677    1     99.0   30 
 8/12/18  3:00p   29.9   29.9   29.2    43   16.0   1.6    NE  0.80   9.7    NE   29.9   30.3   30.3   34.3  1026.3  0.00   0.0   387    16.64    519     3.4  0.73   4.2   0.000   0.242   26.8    46    0.25   701    1    100.0   30 
 8/12/18  3:30p   30.0   30.3   29.9    43   16.1   0.0    NE  0.00   8.0    NE   30.0   30.4   30.4   32.9  1026.3  0.00   0.0   260    11.18    441     2.2  0.47   3.8   0.000   0.243   26.8    45    0.00   699    1    100.0   30 
 8/12/18  4:00p   30.6   30.6   30.0    41   15.8   0.0   ---  0.00   0.0   ---   30.6   30.9   30.9   33.6  1026.2  0.00   0.0   265    11.40    329     2.1  0.45   2.5   0.000   0.255   26.9    45    0.18   699    1    100.0   30 
 8/12/18  4:30p   30.1   30.7   30.1    49   18.2   0.0    NE  0.00   3.2    NE   30.1   31.3   31.3   33.8  1026.4  0.00   0.0   239    10.28    281     1.8  0.39   2.2   0.000   0.245   26.8    44    0.00   700    1    100.0   30 
 8/12/18  5:00p   26.3   30.1   26.3    60   17.9   3.2    SW  1.61  12.9     S   26.3   26.9   26.9   29.6  1026.7  0.00   0.0   230     9.89    316     1.4  0.30   1.7   0.000   0.166   26.9    44    0.18   702    1    100.0   30 
 8/12/18  5:30p   24.8   26.3   24.8    64   17.6   6.4   WSW  3.22  19.3   WSW   24.8   25.5   25.5   30.1  1027.3  0.00   0.0   347    14.92    489     1.8  0.39   2.1   0.000   0.135   26.9    44    0.00   701    1    100.0   30 
 8/12/18  6:00p   23.2   24.8   23.2    68   16.9   4.8    SW  2.41  19.3   WSW   23.2   23.9   23.9   26.8  1028.3  0.00   0.0   204     8.77    262     0.9  0.19   1.3   0.000   0.101   26.9    44    0.20   701    1    100.0   30 
 8/12/18  6:30p   21.9   23.2   21.9    74   17.1   3.2   WSW  1.61  16.1   WSW   21.9   22.4   22.4   24.5  1028.7  0.00   0.0   144     6.19    155     0.4  0.09   0.6   0.000   0.075   26.9    45    0.00   702    1    100.0   30 
 8/12/18  7:00p   20.6   21.9   20.6    80   17.0   4.8   WSW  2.41  19.3   WSW   20.6   21.4   21.4   22.9  1029.1  0.00   0.0   104     4.47    142     0.0  0.00   0.0   0.000   0.046   26.9    45    0.10   670    1     98.0   30 
 8/12/18  7:30p   19.9   20.6   19.9    82   16.8   1.6   WSW  0.80  14.5     W   19.9   20.7   20.7   21.3  1029.9  0.00   0.0    56     2.41     76     0.0  0.00   0.0   0.000   0.034   26.9    46    0.00   702    1    100.0   30 
 8/12/18  8:00p   19.3   19.9   19.3    84   16.6   3.2    SW  1.61  16.1   SSW   19.3   20.0   20.0   19.0  1030.4  0.00   0.0    17     0.73     39     0.0  0.00   0.0   0.000   0.021   26.9    47    0.03   700    1    100.0   30 
 8/12/18  8:30p   18.9   19.3   18.9    86   16.5   1.6   WSW  0.80  14.5     W   18.9   19.5   19.5   18.4  1031.3  0.00   0.0     9     0.39     14     0.0  0.00   0.0   0.000   0.012   26.9    48    0.00   699    1    100.0   30 
 8/12/18  9:00p   18.8   18.9   18.8    86   16.4   1.6    SW  0.80  11.3    SW   18.8   19.3   19.3   18.1  1031.7  0.00   0.0     0     0.00      7     0.0  0.00   0.0   0.000   0.009   26.9    49    0.00   698    1    100.0   30 
 8/12/18  9:30p   18.8   18.8   18.8    84   16.0   1.6    SW  0.80  12.9   WSW   18.8   19.3   19.3   18.1  1031.8  0.00   0.0     0     0.00      0     0.0  0.00   0.0   0.000   0.009   26.9    50    0.00   702    1    100.0   30 
 8/12/18 10:00p   18.6   18.8   18.6    85   16.0   1.6    SW  0.80  12.9    SW   18.6   19.1   19.1   17.9  1032.1  0.00   0.0     0     0.00      0     0.0  0.00   0.0   0.000   0.006   26.9    51    0.03   698    1    100.0   30 
 8/12/18 10:30p   18.5   18.7   18.5    86   16.1   1.6    SW  0.80   9.7    SW   18.5   19.0   19.0   17.8  1032.4  0.00   0.0     0     0.00      0     0.0  0.00   0.0   0.000   0.003   26.9    52    0.00   700    1    100.0   30 
 8/12/18 11:00p   18.3   18.5   18.3    87   16.1   0.0    SW  0.00   8.0    SW   18.3   18.8   18.8   17.6  1032.3  0.00   0.0     0     0.00      0     0.0  0.00   0.0   0.001   0.000   26.8    52    0.03   699    1    100.0   30 
 8/12/18 11:30p   18.1   18.3   18.1    87   15.9   0.0     S  0.00  12.9     S   18.1   18.5   18.5   17.3  1032.4  0.00   0.0     0     0.00      0     0.0  0.00   0.0   0.006   0.000   26.9    53    0.00   700    1    100.0   30 
 9/12/18 12:00a   17.7   18.1   17.7    88   15.7   0.0     S  0.00  11.3     S   17.7   18.1   18.1   16.9  1032.2  0.00   0.0     0     0.00      0     0.0  0.00   0.0   0.013   0.000   26.8    53    0.00   701    1    100.0   30 
 9/12/18 12:30a   17.3   17.7   17.3    89   15.4   0.0     S  0.00  11.3     S   17.3   17.7   17.7   16.4  1032.3  0.00   0.0     0     0.00      0     0.0  0.00   0.0   0.022   0.000   26.8    54    0.00   699    1    100.0   30 
 9/12/18  1:00a   16.9   17.3   16.9    90   15.3   0.0     S  0.00   8.0     S   16.9   17.3   17.3   16.0  1032.1  0.00   0.0     0     0.00      0     0.0  0.00   0.0   0.029   0.000   26.8    53    0.00   700    1    100.0   30 
 9/12/18  1:30a   16.8   16.9   16.8    90   15.1   0.0     S  0.00   4.8     S   16.8   17.1   17.1   15.8  1032.1  0.00   0.0     0     0.00      0     0.0  0.00   0.0   0.032   0.000   26.8    53    0.00   699    1    100.0   30 
 9/12/18  2:00a   16.6   16.8   16.6    90   14.9   0.0     S  0.00   6.4     S   16.6   16.8   16.8   15.6  1032.3  0.00   0.0     0     0.00      0     0.0  0.00   0.0   0.037   0.000   26.8    53    0.00   701    1    100.0   30 
 9/12/18  2:30a   16.4   16.6   16.4    91   15.0   0.0     S  0.00   3.2     S   16.4   16.7   16.7   15.4  1031.7  0.00   0.0     0     0.00      0     0.0  0.00   0.0   0.039   0.000   26.7    53    0.00   698    1    100.0   30 
 9/12/18  3:00a   16.1   16.4   16.1    92   14.8   0.0     S  0.00   6.4     S   16.1   16.3   16.3   15.1  1031.7  1.27  27.4     0     0.00      0     0.0  0.00   0.0   0.046   0.000   26.7    52    0.00   700    1    100.0   30 
 9/12/18  3:30a   16.1   16.2   16.0    93   14.9   0.0   ---  0.00   0.0   ---   16.1   16.3   16.3   15.1  1032.0  1.02  36.3     0     0.00      0     0.0  0.00   0.0   0.047   0.000   26.6    52    0.00   702    1    100.0   30 
 9/12/18  4:00a   16.1   16.2   16.0    93   14.9   0.0   ---  0.00   0.0   ---   16.1   16.3   16.3   15.1  1031.4  0.00   0.0     0     0.00      0     0.0  0.00   0.0   0.047   0.000   26.6    51    0.00   701    1    100.0   30 
 9/12/18  4:30a   15.9   16.1   15.9    94   14.9   0.0   ---  0.00   0.0   ---   15.9   16.1   16.1   14.8  1031.1  0.00   0.0     0     0.00      0     0.0  0.00   0.0   0.051   0.000   26.6    51    0.00   702    1    100.0   30 
 9/12/18  5:00a   15.8   15.9   15.8    94   14.8   0.0   ---  0.00   0.0   ---   15.8   16.0   16.0   14.7  1030.8  0.00   0.0     0     0.00      0     0.0  0.00   0.0   0.053   0.000   26.7    51    0.00   700    1    100.0   30 
 9/12/18  5:30a   15.7   15.8   15.7    94   14.8   0.0   ---  0.00   0.0   ---   15.7   15.9   15.9   14.7  1031.3  0.00   0.0     0     0.00      0     0.0  0.00   0.0   0.054   0.000   26.5    50    0.00   700    1    100.0   30 
 9/12/18  6:00a   15.6   15.7   15.6    94   14.6   0.0   ---  0.00   0.0   ---   15.6   15.8   15.8   14.6  1031.4  0.00   0.0     0     0.00      0     0.0  0.00   0.0   0.057   0.000   26.6    50    0.00   700    1    100.0   30 
 9/12/18  6:30a   15.6   15.6   15.6    94   14.6   0.0   ---  0.00   0.0   ---   15.6   15.8   15.8   14.7  1031.6  0.00   0.0     8     0.34     14     0.0  0.00   0.0   0.057   0.000   26.6    50    0.00   700    1    100.0   30 
 9/12/18  7:00a   15.7   15.7   15.6    94   14.7   0.0   ---  0.00   0.0   ---   15.7   15.9   15.9   14.9  1032.0  0.00   0.0    25     1.08     35     0.0  0.00   0.0   0.056   0.000   26.6    50    0.00   702    1    100.0   30 
 9/12/18  7:30a   15.7   15.7   15.7    93   14.6   0.0     S  0.00   1.6     S   15.7   15.9   15.9   15.8  1032.0  0.00   0.0    31     1.33     40     0.0  0.00   0.0   0.054   0.000   26.6    50    0.00   701    1    100.0   30 
 9/12/18  8:00a   16.1   16.1   15.7    92   14.8   0.0     S  0.00   8.0     S   16.1   16.3   16.3   17.5  1031.6  0.00   0.0    90     3.87    132     0.0  0.00   0.0   0.047   0.000   26.6    49    0.03   701    1    100.0   30 
 9/12/18  8:30a   16.1   16.1   16.0    91   14.6   0.0     S  0.00   1.6     S   16.1   16.3   16.3   16.7  1031.4  0.00   0.0    62     2.67     91     0.0  0.00   0.0   0.047   0.000   26.6    49    0.00   701    1    100.0   30 
 9/12/18  9:00a   16.7   16.7   16.1    89   14.8   0.0     S  0.00   6.4     S   16.7   16.9   16.9   19.0  1031.3  0.00   0.0   162     6.97    234     0.7  0.15   1.0   0.035   0.000   26.6    49    0.05   702    1    100.0   30 
 9/12/18  9:30a   17.1   17.2   16.7    86   14.7   0.0     S  0.00   6.4     S   17.1   17.4   17.4   19.8  1031.3  0.00   0.0   205     8.82    257     1.1  0.24   1.4   0.025   0.000   26.6    49    0.00   700    1    100.0   30 
 9/12/18 10:00a   17.8   17.8   17.1    83   14.9   0.0     S  0.00   6.4     S   17.8   18.1   18.1   21.0  1031.2  0.00   0.0   252    10.84    295     1.5  0.32   1.9   0.012   0.000   26.6    49    0.13   701    1    100.0   30 
 9/12/18 10:30a   18.6   18.6   17.8    80   15.0   0.0     S  0.00   9.7     S   18.6   19.0   19.0   22.5  1030.9  0.00   0.0   317    13.63    355     2.2  0.47   2.4   0.000   0.005   26.7    48    0.00   700    1    100.0   30 
 9/12/18 11:00a   18.9   18.9   18.6    80   15.4   0.0     S  0.00   8.0     S   18.9   19.4   19.4   22.6  1030.6  0.00   0.0   304    13.07    357     2.3  0.49   2.7   0.000   0.013   26.7    49    0.18   701    1    100.0   30 
 9/12/18 11:30a   19.6   19.6   18.9    77   15.4   0.0     S  0.00   9.7     S   19.6   20.1   20.1   23.6  1030.4  0.00   0.0   347    14.92    403     2.9  0.62   3.3   0.000   0.025   26.7    49    0.00   702    1    100.0   30 
 9/12/18 12:00p   20.1   20.1   19.6    75   15.5   0.0     S  0.00   6.4     S   20.1   20.6   20.6   24.2  1030.5  0.00   0.0   354    15.22    462     3.2  0.69   4.2   0.000   0.037   26.7    49    0.20   702    1    100.0   30 
 9/12/18 12:30p   20.7   20.7   20.1    73   15.7   0.0     S  0.00   8.0     S   20.7   21.1   21.1   26.1  1030.3  0.00   0.0   504    21.67    642     4.5  0.96   5.4   0.000   0.049   26.7    49    0.00   702    1    100.0   30 
 9/12/18  1:00p   21.4   21.4   20.7    71   15.9   0.0     S  0.00   9.7     S   21.4   21.6   21.6   26.4  1030.2  0.00   0.0   482    20.73    629     4.4  0.94   5.4   0.000   0.064   26.8    49    0.28   702    1    100.0   30 
 9/12/18  1:30p   20.2   21.4   20.2    76   15.9   0.0   SSW  0.00   9.7   SSW   20.2   20.8   20.8   22.1  1030.8  2.54  57.4   172     7.40    269     1.8  0.39   5.1   0.000   0.039   26.8    49    0.00   700    1    100.0   30 
 9/12/18  2:00p   19.0   20.2   19.0    86   16.6   0.0   ---  0.00   0.0   ---   19.0   19.6   19.6   21.1  1029.8  0.25  13.7   176     7.57    230     1.3  0.28   1.9   0.000   0.014   26.7    49    0.10   701    1    100.0   30 
 9/12/18  2:30p   19.4   19.4   18.9    87   17.2   0.0   SSW  0.00   1.6   SSW   19.4   20.2   20.2   23.0  1029.7  0.00   0.0   279    12.00    793     2.4  0.51   5.8   0.000   0.022   26.8    50    0.00   701    1    100.0   30 
 9/12/18  3:00p   20.7   20.7   19.3    78   16.7   0.0   SSW  0.00   4.8   SSW   20.7   21.3   21.3   25.8  1029.2  0.00   0.0   444    19.09    756     4.0  0.86   7.0   0.000   0.049   26.8    49    0.23   698    1    100.0   30 
 9/12/18  3:30p   20.4   20.8   20.4    75   15.8   0.0   SSW  0.00   6.4   SSW   20.4   20.9   20.9   22.9  1029.4  0.00   0.0   213     9.16    341     1.6  0.34   2.6   0.000   0.043   26.8    50    0.00   699    1    100.0   30 
 9/12/18  4:00p   20.3   20.4   20.3    76   15.9   0.0   SSW  0.00   1.6   SSW   20.3   20.8   20.8   22.8  1029.5  0.00   0.0   210     9.03    237     1.4  0.30   1.6   0.000   0.041   26.7    49    0.13   702    1    100.0   30 
 9/12/18  4:30p   20.6   20.6   20.3    74   15.8   0.0   ---  0.00   0.0   ---   20.6   21.1   21.1   22.7  1028.4  0.00   0.0   172     7.40    197     1.1  0.24   1.2   0.000   0.047   26.7    49    0.00   699    1    100.0   30 
 9/12/18  5:00p   20.6   20.7   20.6    76   16.2   0.0   SSW  0.00   9.7    SE   20.6   21.2   21.2   23.2  1028.3  0.00   0.0   191     8.21    338     1.1  0.24   1.2   0.000   0.046   26.8    50    0.10   701    1    100.0   30 
 9/12/18  5:30p   21.0   21.0   20.6    72   15.8   0.0   SSW  0.00   9.7   SSW   21.0   21.2   21.2   24.1  1028.2  0.00   0.0   224     9.63    299     1.2  0.26   1.6   0.000   0.056   26.8    50    0.00   671    1     98.1   30 
 9/12/18  6:00p   20.7   21.1   20.7    72   15.5   0.0   ---  0.00   0.0   ---   20.7   21.0   21.0   22.1  1028.4  0.00   0.0   107     4.60    144     0.2  0.04   0.7   0.000   0.050   26.7    49    0.10   700    1    100.0   30 
 9/12/18  6:30p   20.6   20.7   20.6    75   16.0   0.0   ---  0.00   0.0   ---   20.6   21.1   21.1   21.7  1028.3  0.00   0.0    70     3.01     88     0.0  0.00   0.0   0.000   0.046   26.7    50    0.00   702    1    100.0   30 
 9/12/18  7:00p   20.2   20.6   20.2    77   16.0   0.0   ---  0.00   0.0   ---   20.2   20.8   20.8   20.8  1027.7  0.00   0.0    38     1.63     54     0.0  0.00   0.0   0.000   0.038   26.7    50    0.03   702    1    100.0   30 
 9/12/18  7:30p   19.7   20.2   19.7    80   16.2   0.0   ---  0.00   0.0   ---   19.7   20.4   20.4   20.3  1027.4  0.00   0.0    30     1.29     44     0.0  0.00   0.0   0.000   0.029   26.6    50    0.00   701    1    100.0   30 
 9/12/18  8:00p   19.6   19.7   19.6    78   15.6   0.0   SSW  0.00   3.2   SSW   19.6   20.1   20.1   19.2  1028.7  0.00   0.0    20     0.86     35     0.0  0.00   0.0   0.000   0.025   26.7    50    0.03   702    1    100.0   30 
 9/12/18  8:30p   19.1   19.6   19.1    77   14.9   0.0   SSW  0.00  11.3   SSW   19.1   19.4   19.4   18.2  1028.9  0.00   0.0     3     0.13     11     0.0  0.00   0.0   0.000   0.015   26.7    50    0.00   700    1    100.0   30 
 9/12/18  9:00p   18.1   19.1   18.1    81   14.8   0.0    SE  0.00   9.7   SSE   18.1   18.4   18.4   17.2  1028.5  0.00   0.0     1     0.04      7     0.0  0.00   0.0   0.005   0.000   26.6    50    0.00   702    1    100.0   30 
 9/12/18  9:30p   17.7   18.1   17.7    83   14.7   0.0     S  0.00   9.7     S   17.7   17.9   17.9   16.7  1028.9  0.00   0.0     0     0.00      0     0.0  0.00   0.0   0.014   0.000   26.6    50    0.00   701    1    100.0   30 
 9/12/18 10:00p   17.6   17.7   17.6    83   14.6   0.0   SSW  0.00   8.0    SW   17.6   17.8   17.8   16.6  1027.7  0.00   0.0     0     0.00      0     0.0  0.00   0.0   0.016   0.000   26.6    50    0.03   701    1    100.0   30 
 9/12/18 10:30p   17.6   17.6   17.4    84   14.8   1.6   SSW  0.80  12.9     W   17.6   17.8   17.8   16.6  1029.5  0.00   0.0     0     0.00      0     0.0  0.00   0.0   0.016   0.000   26.6    50    0.00   700    1    100.0   30 
 9/12/18 11:00p   17.6   17.6   17.5    84   14.9   0.0   ---  0.00   0.0   ---   17.6   17.9   17.9   16.7  1028.9  0.00   0.0     0     0.00      0     0.0  0.00   0.0   0.015   0.000   26.5    50    0.03   700    1    100.0   30 
 9/12/18 11:30p   17.7   17.7   17.6    83   14.8   0.0   ---  0.00   0.0   ---   17.7   18.0   18.0   16.8  1029.1  0.00   0.0     0     0.00      0     0.0  0.00   0.0   0.013   0.000   26.5    49    0.00   681    1     99.6   30 
10/12/18 12:00a   17.6   17.8   17.6    83   14.6   0.0     W  0.00   8.0     W   17.6   17.8   17.8   16.6  1029.0  0.00   0.0     0     0.00      0     0.0  0.00   0.0   0.016   0.000   26.6    49    0.03   702    1    100.0   30 
10/12/18 12:30a   17.3   17.6   17.3    84   14.5   0.0     W  0.00   1.6     W   17.3   17.6   17.6   16.3  1029.5  0.00   0.0     0     0.00      0     0.0  0.00   0.0   0.022   0.000   26.5    49    0.00   699    1    100.0   30 
10/12/18  1:00a   17.2   17.3   17.2    84   14.5   0.0     W  0.00   4.8     W   17.2   17.5   17.5   16.3  1029.1  0.00   0.0     0     0.00      0     0.0  0.00   0.0   0.023   0.000   26.5    49    0.03   701    1    100.0   30 
10/12/18  1:30a   17.1   17.2   17.1    84   14.4   0.0     W  0.00   4.8     W   17.1   17.3   17.3   16.1  1029.3  0.00   0.0     0     0.00      0     0.0  0.00   0.0   0.025   0.000   26.5    49    0.00   701    1    100.0   30 
10/12/18  2:00a   17.0   17.1   17.0    84   14.3   0.0     W  0.00  12.9     W   17.0   17.2   17.2   15.9  1029.2  0.00   0.0     0     0.00      0     0.0  0.00   0.0   0.028   0.000   26.6    49    0.03   699    1    100.0   30 
10/12/18  2:30a   16.8   17.0   16.8    85   14.3   0.0     W  0.00   9.7     W   16.8   17.1   17.1   15.8  1029.3  0.00   0.0     0     0.00      0     0.0  0.00   0.0   0.031   0.000   26.5    48    0.00   702    1    100.0   30 
10/12/18  3:00a   16.7   16.8   16.7    85   14.1   0.0     W  0.00   9.7     W   16.7   16.8   16.8   15.6  1029.1  0.00   0.0     0     0.00      0     0.0  0.00   0.0   0.035   0.000   26.6    48    0.03   700    1    100.0   30 
10/12/18  3:30a   16.6   16.7   16.5    85   14.0   0.0     W  0.00   9.7     W   16.6   16.7   16.7   15.4  1029.3  0.00   0.0     0     0.00      0     0.0  0.00   0.0   0.037   0.000   26.6    48    0.00   702    1    100.0   30 
10/12/18  4:00a   16.5   16.6   16.4    86   14.1   0.0   ---  0.00   0.0   ---   16.5   16.7   16.7   15.4  1029.4  0.00   0.0     0     0.00      0     0.0  0.00   0.0   0.038   0.000   26.5    48    0.03   699    1    100.0   30 
10/12/18  4:30a   16.3   16.4   16.3    86   14.0   0.0     W  0.00   1.6     W   16.3   16.5   16.5   15.2  1029.6  0.00   0.0     0     0.00      0     0.0  0.00   0.0   0.042   0.000   26.6    48    0.00   671    1     98.1   30 
10/12/18  5:00a   16.2   16.3   16.2    86   13.8   0.0     W  0.00   9.7     W   16.2   16.3   16.3   15.0  1030.0  0.00   0.0     0     0.00      0     0.0  0.00   0.0   0.045   0.000   26.6    48    0.00   698    1    100.0   30 
10/12/18  5:30a   16.1   16.2   16.1    86   13.7   0.0     W  0.00  11.3     W   16.1   16.2   16.2   14.9  1030.3  0.00   0.0     0     0.00      0     0.0  0.00   0.0   0.047   0.000   26.6    47    0.00   700    1    100.0   30 
10/12/18  6:00a   15.9   16.1   15.8    87   13.7   0.0     W  0.00  11.3     W   15.9   16.0   16.0   14.7  1030.4  0.00   0.0     0     0.00      0     0.0  0.00   0.0   0.051   0.000   26.5    47    0.00   701    1    100.0   30 
10/12/18  6:30a   15.9   15.9   15.8    87   13.7   0.0     W  0.00   8.0     W   15.9   16.0   16.0   14.8  1030.9  0.00   0.0     3     0.13      9     0.0  0.00   0.0   0.051   0.000   26.5    47    0.00   702    1    100.0   30 
10/12/18  7:00a   16.1   16.1   15.9    85   13.5   0.0     W  0.00   3.2     W   16.1   16.2   16.2   15.4  1031.1  0.00   0.0    39     1.68    109     0.0  0.00   0.0   0.047   0.000   26.5    47    0.03   701    1    100.0   30 
10/12/18  7:30a   16.6   16.6   16.1    82   13.5   0.0   WSW  0.00  17.7   WSW   16.6   16.7   16.7   18.4  1031.4  0.00   0.0   120     5.16    241     0.0  0.00   0.0   0.036   0.000   26.6    47    0.00   700    1    100.0   30 
10/12/18  8:00a   16.5   16.6   16.4    80   13.0   0.0    SW  0.00  11.3   WSW   16.5   16.6   16.6   17.7  1031.5  0.00   0.0    88     3.78    134     0.0  0.00   0.0   0.038   0.000   26.5    47    0.05   699    1    100.0   30 
10/12/18  8:30a   17.1   17.1   16.5    74   12.4   1.6    SW  0.80  11.3    SW   17.1   17.0   17.0   19.8  1031.8  0.00   0.0   190     8.17    299     0.7  0.15   1.4   0.025   0.000   26.6    47    0.00   700    1    100.0   30 
10/12/18  9:00a   17.4   17.7   17.1    73   12.5   1.6   SSW  0.80  14.5   SSW   17.4   17.3   17.3   20.8  1031.9  0.00   0.0   254    10.92    698     1.2  0.26   2.6   0.020   0.000   26.7    47    0.15   701    1    100.0   30 
10/12/18  9:30a   17.6   17.9   17.4    71   12.2   1.6   SSW  0.80  14.5    SW   17.6   17.4   17.4   21.3  1032.0  0.00   0.0   307    13.20    744     1.8  0.39   3.0   0.016   0.000   26.7    47    0.00   702    1    100.0   30 
10/12/18 10:00a   19.6   19.6   17.5    64   12.6   1.6     S  0.80  16.1   SSW   19.6   19.6   19.6   25.4  1032.1  0.00   0.0   560    24.08   1093     3.2  0.69   4.6   0.000   0.027   26.7    46    0.25   701    1    100.0   30 
10/12/18 10:30a   18.6   19.7   18.6    69   12.8   1.6   SSW  0.80  16.1   SSW   18.6   18.6   18.6   23.6  1032.1  0.00   0.0   482    20.73   1099     3.1  0.66   5.1   0.000   0.005   26.8    46    0.00   703    1    100.0   30 
10/12/18 11:00a   19.6   19.7   18.4    61   11.9   1.6   SSW  0.80  14.5   WSW   19.6   19.4   19.4   25.1  1032.2  0.00   0.0   597    25.67   1229     4.7  1.01   7.2   0.000   0.027   26.9    46    0.36   699    1    100.0   30 
10/12/18 11:30a   20.1   20.4   19.6    60   12.1   3.2     S  1.61  17.7   SSE   20.1   19.9   19.9   25.6  1032.1  0.00   0.0   835    35.91   1222     6.6  1.41   7.9   0.000   0.037   26.9    46    0.00   699    1    100.0   30 
10/12/18 12:00p   21.4   21.4   20.1    56   12.3   1.6     S  0.80  16.1     S   21.4   20.9   20.9   27.8  1031.9  0.00   0.0  1110    47.74   1199     8.0  1.71   8.7   0.000   0.065   27.0    46    0.56   702    1    100.0   30 
10/12/18 12:30p   21.7   21.7   20.9    54   12.0   3.2     S  1.61  24.1     S   21.7   21.2   21.2   27.3  1031.8  0.00   0.0  1068    45.93   1114     8.4  1.80   9.1   0.000   0.071   27.1    45    0.00   701    1    100.0   30 
10/12/18  1:00p   22.2   22.7   21.6    53   12.2   1.6   SSE  0.80  19.3   SSE   22.2   21.8   21.8   28.1  1031.7  0.00   0.0  1114    47.91   1248     9.1  1.95   9.7   0.000   0.081   27.2    44    0.63   700    1    100.0   30 
10/12/18  1:30p   22.5   22.6   22.2    54   12.7   3.2     S  1.61  19.3     S   22.5   22.3   22.3   28.4  1031.5  0.00   0.0  1104    47.48   1257     8.8  1.89  10.0   0.000   0.087   27.2    44    0.00   697    1    100.0   30 
10/12/18  2:00p   22.5   22.7   22.1    55   13.0   3.2     S  1.61  20.9     S   22.5   22.4   22.4   28.6  1031.6  0.00   0.0  1106    47.56   1179     8.8  1.89   9.5   0.000   0.087   27.3    43    0.63   702    1    100.0   30 
10/12/18  2:30p   22.2   22.8   22.2    55   12.7   3.2     S  1.61  16.1   SSW   22.2   21.9   21.9   27.4  1031.4  0.00   0.0   983    42.27   1078     8.0  1.71   8.9   0.000   0.080   27.6    44    0.00   700    1    100.0   30 
10/12/18  3:00p   22.4   22.6   22.2    56   13.2   3.2     S  1.61  20.9     S   22.4   22.3   22.3   28.4  1031.3  0.00   0.0   998    42.92   1058     7.8  1.67   8.4   0.000   0.086   27.8    44    0.58   698    1    100.0   30 
10/12/18  3:30p   22.8   22.8   22.2    54   13.0   3.2     S  1.61  17.7   SSW   22.8   22.7   22.7   28.8  1031.5  0.00   0.0   932    40.08   1021     6.6  1.41   7.6   0.000   0.093   27.8    44    0.00   699    1    100.0   30 
10/12/18  4:00p   22.9   23.3   22.8    53   12.9   4.8     S  2.41  17.7   SSE   22.9   22.9   22.9   29.0  1031.2  0.00   0.0   852    36.64    884     5.9  1.26   6.4   0.000   0.096   27.7    44    0.00   700    1    100.0   30 
10/12/18  4:30p   22.8   23.3   22.8    51   12.2   4.8   SSW  2.41  20.9    SW   22.8   22.6   22.6   28.7  1031.0  0.00   0.0   775    33.33    807     4.8  1.03   5.3   0.000   0.094   27.6    43    0.53   698    1    100.0   30 
10/12/18  5:00p   22.8   23.2   22.7    48   11.2   4.8     S  2.41  19.3     S   22.8   22.4   22.4   28.5  1031.0  0.00   0.0   688    29.59    731     3.7  0.79   4.2   0.000   0.093   27.3    43    0.48   701    1    100.0   30 
10/12/18  5:30p   22.9   22.9   22.6    44   10.0   4.8     S  2.41  17.7     S   22.9   22.4   22.4   28.4  1030.7  0.00   0.0   593    25.50    638     2.7  0.58   3.2   0.000   0.096   27.3    43    0.00   698    1    100.0   30 
10/12/18  6:00p   22.8   23.2   22.8    47   10.9   4.8     S  2.41  17.7     S   22.8   22.4   22.4   28.2  1030.8  0.00   0.0   489    21.03    538     1.9  0.41   2.2   0.000   0.093   27.1    42    0.38   701    1    100.0   30 
10/12/18  6:30p   22.3   22.8   22.3    48   10.8   4.8     S  2.41  14.5     S   22.3   21.8   21.8   26.9  1031.0  0.00   0.0   378    16.26    432     1.2  0.26   1.5   0.000   0.083   27.1    43    0.00   700    1    100.0   30 
10/12/18  7:00p   21.7   22.3   21.7    49   10.5   3.2   SSE  1.61  12.9     S   21.7   20.9   20.9   25.1  1031.1  0.00   0.0   275    11.83    325     0.7  0.15   0.9   0.000   0.071   27.1    43    0.23   700    1    100.0   30 
10/12/18  7:30p   20.9   21.7   20.9    53   10.9   1.6   SSE  0.80  20.9   SSW   20.9   20.2   20.2   22.4  1031.5  0.00   0.0   161     6.92    220     0.0  0.00   0.5   0.000   0.053   27.0    45    0.00   698    1    100.0   30 
10/12/18  8:00p   19.4   20.8   19.4    57   10.6   1.6    SE  0.80  12.9   SSW   19.4   18.9   18.9   17.7  1031.7  0.00   0.0    42     1.81    102     0.0  0.00   0.0   0.000   0.022   27.0    46    0.08   701    1    100.0   30 
10/12/18  8:30p   18.4   19.4   18.4    60   10.5   0.0   SSE  0.00  12.9   ESE   18.4   18.0   18.0   16.4  1032.2  0.00   0.0    12     0.52     19     0.0  0.00   0.0   0.000   0.002   27.0    47    0.00   699    1    100.0   30 
10/12/18  9:00p   17.7   18.4   17.7    62   10.3   0.0   SSE  0.00   8.0   SSE   17.7   17.3   17.3   15.5  1032.5  0.00   0.0     0     0.00      5     0.0  0.00   0.0   0.013   0.000   26.9    47    0.03   702    1    100.0   30 
10/12/18  9:30p   17.1   17.7   17.1    64   10.2   0.0    SE  0.00   3.2    SE   17.1   16.7   16.7   14.9  1032.7  0.00   0.0     0     0.00      0     0.0  0.00   0.0   0.027   0.000   26.9    48    0.00   659    1     96.3   30 
10/12/18 10:00p   16.5   17.1   16.4    67   10.3   0.0    SE  0.00   8.0    SE   16.5   16.2   16.2   14.4  1032.6  0.00   0.0     0     0.00      0     0.0  0.00   0.0   0.038   0.000   26.8    48    0.03   698    1    100.0   30 
10/12/18 10:30p   16.1   16.6   16.1    75   11.7   0.0   SSE  0.00   9.7   SSE   16.1   15.9   15.9   14.3  1032.6  0.00   0.0     0     0.00      0     0.0  0.00   0.0   0.046   0.000   26.7    47    0.00   698    1    100.0   30 
10/12/18 11:00p   15.5   16.1   15.5    78   11.7   0.0   ---  0.00   0.0   ---   15.5   15.4   15.4   13.7  1032.6  0.00   0.0     0     0.00      0     0.0  0.00   0.0   0.059   0.000   26.6    46    0.03   700    1    100.0   30 
10/12/18 11:30p   14.9   15.5   14.9    81   11.7   0.0   ---  0.00   0.0   ---   14.9   14.8   14.8   13.2  1032.8  0.00   0.0     0     0.00      0     0.0  0.00   0.0   0.071   0.000   26.6    45    0.00   699    1    100.0   30 
11/12/18 12:00a   14.2   14.9   14.2    82   11.2   0.0   ---  0.00   0.0   ---   14.2   14.1   14.1   12.4  1032.9  0.00   0.0     0     0.00      0     0.0  0.00   0.0   0.086   0.000   26.6    45    0.03   699    1    100.0   30 
11/12/18 12:30a   13.3   14.2   13.3    85   10.9   0.0   ---  0.00   0.0   ---   13.3   13.3   13.3   11.6  1032.5  0.00   0.0     0     0.00      0     0.0  0.00   0.0   0.104   0.000   26.7    44    0.00   702    1    100.0   30 
11/12/18  1:00a   13.1   13.3   13.1    87   11.0   0.0   ---  0.00   0.0   ---   13.1   13.1   13.1   11.4  1032.5  0.00   0.0     0     0.00      0     0.0  0.00   0.0   0.109   0.000   26.7    43    0.00   699    1    100.0   30 
11/12/18  1:30a   12.5   13.1   12.5    88   10.6   0.0   ---  0.00   0.0   ---   12.5   12.5   12.5   10.8  1032.1  0.00   0.0     0     0.00      0     0.0  0.00   0.0   0.122   0.000   26.7    43    0.00   701    1    100.0   30 
11/12/18  2:00a   11.9   12.5   11.9    90   10.4   0.0   ---  0.00   0.0   ---   11.9   12.0   12.0   10.2  1031.8  0.00   0.0     0     0.00      0     0.0  0.00   0.0   0.133   0.000   26.7    42    0.00   702    1    100.0   30 
11/12/18  2:30a   11.5   11.9   11.4    91   10.1   0.0   ---  0.00   0.0   ---   11.5   11.6   11.6    9.8  1031.6  0.00   0.0     0     0.00      0     0.0  0.00   0.0   0.142   0.000   26.7    41    0.00   679    1     99.3   30 
11/12/18  3:00a   11.3   11.5   11.3    92   10.0   0.0   ---  0.00   0.0   ---   11.3   11.4   11.4    9.6  1031.2  0.00   0.0     0     0.00      0     0.0  0.00   0.0   0.147   0.000   26.7    41    0.00   703    1    100.0   30 
11/12/18  3:30a   11.3   11.3   11.2    93   10.2   0.0   ---  0.00   0.0   ---   11.3   11.4   11.4    9.7  1031.0  0.00   0.0     0     0.00      0     0.0  0.00   0.0   0.146   0.000   26.6    41    0.00   700    1    100.0   30 
11/12/18  4:00a   11.1   11.3   11.1    93   10.0   0.0   ---  0.00   0.0   ---   11.1   11.3   11.3    9.5  1030.7  0.00   0.0     0     0.00      0     0.0  0.00   0.0   0.150   0.000   26.6    41    0.00   703    1    100.0   30 
11/12/18  4:30a   11.8   11.9   11.1    93   10.7   0.0   ---  0.00   0.0   ---   11.8   11.9   11.9   10.2  1030.5  0.00   0.0     0     0.00      0     0.0  0.00   0.0   0.135   0.000   26.6    40    0.00   681    1     99.6   30 
11/12/18  5:00a   10.8   11.8   10.8    93    9.7   0.0   ---  0.00   0.0   ---   10.8   11.0   11.0    9.2  1030.7  0.00   0.0     0     0.00      0     0.0  0.00   0.0   0.156   0.000   26.5    40    0.00   701    1    100.0   30 
11/12/18  5:30a   10.5   10.8   10.5    93    9.4   0.0   ---  0.00   0.0   ---   10.5   10.7   10.7    8.8  1030.6  0.00   0.0     0     0.00      0     0.0  0.00   0.0   0.163   0.000   26.4    40    0.00   665    1     97.2   30 
11/12/18  6:00a   10.6   10.7   10.4    94    9.7   0.0   ---  0.00   0.0   ---   10.6   10.8   10.8    9.1  1030.9  0.00   0.0     3     0.13     11     0.0  0.00   0.0   0.161   0.000   26.3    40    0.00   701    1    100.0   30 
11/12/18  6:30a   10.7   10.7   10.4    95   10.0   0.0   ---  0.00   0.0   ---   10.7   10.9   10.9    9.5  1031.2  0.00   0.0    28     1.20     58     0.0  0.00   0.0   0.159   0.000   26.2    40    0.00   699    1    100.0   30 
11/12/18  7:00a   12.4   12.4   10.7    95   11.6   0.0   ---  0.00   0.0   ---   12.4   12.5   12.5   11.9  1031.2  0.00   0.0    97     4.17    139     0.0  0.00   0.0   0.124   0.000   26.2    39    0.03   701    1    100.0   30 
11/12/18  7:30a   14.1   14.1   12.4    92   12.8   0.0   ---  0.00   0.0   ---   14.1   14.2   14.2   17.2  1031.2  0.00   0.0   187     8.04    250     0.0  0.00   0.5   0.089   0.000   26.3    39    0.00   700    1    100.0   30 
11/12/18  8:00a   15.8   15.8   14.1    80   12.4   0.0     S  0.00  12.9   SSE   15.8   15.8   15.8   21.2  1031.1  0.00   0.0   324    13.93    388     0.7  0.15   1.0   0.052   0.000   26.4    40    0.13   702    1    100.0   30 
11/12/18  8:30a   16.4   16.4   15.8    76   12.1   0.0   WSW  0.00  14.5   WSW   16.4   16.3   16.3   21.7  1031.0  0.00   0.0   388    16.69    487     1.2  0.26   1.6   0.041   0.000   26.6    40    0.00   702    1    100.0   30 
11/12/18  9:00a   17.6   17.6   16.4    70   12.0   0.0    SW  0.00   9.7    SW   17.6   17.4   17.4   23.7  1031.0  0.00   0.0   515    22.15    596     2.0  0.43   2.4   0.016   0.000   26.4    41    0.00   701    1    100.0   30 
11/12/18  9:30a   18.3   18.4   17.6    67   12.1   1.6   SSW  0.80  12.9   SSW   18.3   18.2   18.2   25.0  1031.3  0.00   0.0   646    27.78    693     2.9  0.62   3.4   0.000   0.000   26.5    41    0.23   702    1    100.0   30 
11/12/18 10:00a   19.3   19.3   18.3    65   12.6   1.6   SSW  0.80  12.9     S   19.3   19.3   19.3   25.9  1031.1  0.00   0.0   724    31.14    780     3.9  0.84   4.5   0.000   0.021   26.7    41    0.38   692    1    100.0   30 
11/12/18 10:30a   20.3   20.3   19.4    61   12.5   1.6     S  0.80  12.9     S   20.3   20.1   20.1   26.6  1031.3  0.00   0.0   817    35.14    856     5.1  1.09   5.6   0.000   0.041   26.7    42    0.00   685    1    100.0   30 
11/12/18 11:00a   21.1   21.1   20.2    59   12.7   1.6   SSW  0.80  14.5   WSW   21.1   20.6   20.6   26.9  1030.5  0.00   0.0   887    38.15    923     6.2  1.33   6.8   0.000   0.057   26.9    42    0.48   701    1    100.0   30 
11/12/18 11:30a   21.5   21.5   21.1    58   12.9   1.6    SW  0.80  11.3    SW   21.5   21.1   21.1   27.3  1030.6  0.00   0.0   948    40.77    976     7.2  1.54   7.7   0.000   0.066   27.0    42    0.00   701    1    100.0   30 
11/12/18 12:00p   23.1   23.1   21.6    54   13.3   1.6   SSE  0.80  14.5   SSE   23.1   23.1   23.1   29.2  1030.0  0.00   0.0   997    42.88   1025     8.2  1.76   8.6   0.000   0.100   27.1    42    0.58   703    1    100.0   30 
11/12/18 12:30p   24.6   24.6   23.1    50   13.4   0.0   SSE  0.00   9.7   SSE   24.6   24.6   24.6   30.6  1029.1  0.00   0.0  1035    44.51   1049     8.9  1.91   9.2   0.000   0.130   27.2    42    0.00   701    1    100.0   30 
11/12/18  1:00p   24.8   24.9   24.6    48   13.0   1.6     S  0.80  14.5   SSE   24.8   24.6   24.6   30.4  1028.9  0.00   0.0  1055    45.37   1065     9.3  1.99   9.4   0.000   0.134   27.6    42    0.66   700    1    100.0   30 
11/12/18  1:30p   25.8   25.8   24.8    46   13.3   1.6     S  0.80  12.9    SW   25.8   25.7   25.7   31.4  1028.5  0.00   0.0  1057    45.46   1063     9.3  1.99   9.4   0.000   0.156   28.8    42    0.00   697    1    100.0   30 
11/12/18  2:00p   26.6   26.6   25.9    42   12.6   3.2     S  1.61  12.9   SSW   26.6   26.2   26.2   31.9  1028.1  0.00   0.0  1044    44.90   1053     9.1  1.95   9.2   0.000   0.172   29.6    41    0.69   701    1    100.0   30 
11/12/18  2:30p   27.3   27.3   26.4    45   14.3   3.2   SSE  1.61  14.5    SE   27.3   27.1   27.1   32.9  1027.6  0.00   0.0  1018    43.78   1034     8.6  1.84   8.8   0.000   0.186   30.2    42    0.00   700    1    100.0   30 
11/12/18  3:00p   26.6   27.6   26.6    49   15.0   3.2    SW  1.61  17.7   WSW   26.6   26.6   26.6   32.6  1027.1  0.00   0.0   976    41.97    997     7.8  1.67   8.3   0.000   0.171   30.7    42    0.66   672    1     98.2   30 
11/12/18  3:30p   25.8   26.6   25.8    53   15.5   4.8    SW  2.41  20.9   WSW   25.8   26.1   26.1   32.2  1027.0  0.00   0.0   921    39.61    951     6.9  1.48   7.3   0.000   0.156   31.1    44    0.00   702    1    100.0   30 
11/12/18  4:00p   26.1   26.1   25.4    54   16.1   4.8    SW  2.41  20.9   WSW   26.1   26.4   26.4   32.6  1026.4  0.00   0.0   852    36.64    886     5.8  1.24   6.3   0.000   0.162   31.3    42    0.61   699    1    100.0   30 
11/12/18  4:30p   26.7   26.9   25.9    53   16.3   3.2    SW  1.61  17.7   WNW   26.7   26.9   26.9   33.3  1025.8  0.00   0.0   775    33.33    810     4.7  1.01   5.2   0.000   0.174   31.7    42    0.00   700    1    100.0   30 
11/12/18  5:00p   27.7   27.7   26.6    50   16.4   3.2    SW  1.61  17.7   WNW   27.7   28.1   28.1   34.4  1025.2  0.00   0.0   685    29.46    731     3.7  0.79   4.2   0.000   0.196   30.9    38    0.48   703    1    100.0   30 
11/12/18  5:30p   28.3   28.3   27.6    49   16.5   3.2    SW  1.61  14.5    SW   28.3   28.8   28.8   35.1  1024.8  0.00   0.0   587    25.24    642     2.7  0.58   3.1   0.000   0.207   29.6    35    0.00   699    1    100.0   30 
11/12/18  6:00p   28.4   28.4   27.8    45   15.3   3.2    SW  1.61  12.9    SW   28.4   28.7   28.7   34.6  1024.8  0.00   0.0   481    20.69    536     1.9  0.41   2.2   0.000   0.209   28.8    40    0.38   701    1    100.0   30 
11/12/18  6:30p   28.2   28.5   28.0    45   15.2   4.8     S  2.41  16.1     S   28.2   28.4   28.4   33.8  1025.2  0.00   0.0   375    16.13    427     1.2  0.26   1.5   0.000   0.206   28.7    43    0.00   701    1    100.0   30 
11/12/18  7:00p   25.9   28.2   25.9    59   17.3   3.2    SW  1.61  17.7   WSW   25.9   26.4   26.4   30.9  1025.2  0.00   0.0   272    11.70    320     0.7  0.15   1.0   0.000   0.159   28.5    44    0.25   701    1    100.0   30 
11/12/18  7:30p   24.0   26.0   24.0    65   17.0   3.2   WSW  1.61  14.5   WSW   24.0   24.7   24.7   27.2  1025.1  0.00   0.0   159     6.84    218     0.1  0.02   0.5   0.000   0.118   28.3    44    0.00   701    1    100.0   30 
11/12/18  8:00p   22.3   24.0   22.3    72   17.0   0.0   WSW  0.00  12.9   WSW   22.3   22.8   22.8   21.9  1025.5  0.00   0.0    45     1.94    102     0.0  0.00   0.0   0.000   0.083   27.9    45    0.08   701    1    100.0   30 
11/12/18  8:30p   21.5   22.3   21.5    75   16.9   0.0   WSW  0.00  12.9   WSW   21.5   21.9   21.9   20.7  1025.6  0.00   0.0    14     0.60     21     0.0  0.00   0.0   0.000   0.066   27.9    48    0.00   701    1    100.0   30 
11/12/18  9:00p   20.8   21.5   20.8    76   16.4   0.0   ---  0.00   0.0   ---   20.8   21.3   21.3   19.9  1025.9  0.00   0.0     0     0.00      0     0.0  0.00   0.0   0.000   0.052   27.9    48    0.00   700    1    100.0   30 
11/12/18  9:30p   20.3   20.8   20.3    79   16.5   0.0   ---  0.00   0.0   ---   20.3   21.0   21.0   19.6  1026.0  0.00   0.0     0     0.00      0     0.0  0.00   0.0   0.000   0.041   27.8    49    0.00   701    1    100.0   30 
11/12/18 10:00p   19.9   20.3   19.9    79   16.1   0.0   ---  0.00   0.0   ---   19.9   20.6   20.6   19.1  1026.2  0.00   0.0     0     0.00      0     0.0  0.00   0.0   0.000   0.032   27.8    50    0.03   700    1    100.0   30 
11/12/18 10:30p   19.6   19.9   19.5    79   15.8   0.0   ---  0.00   0.0   ---   19.6   20.2   20.2   18.7  1026.3  0.00   0.0     0     0.00      0     0.0  0.00   0.0   0.000   0.025   27.8    50    0.00   700    1    100.0   30 
11/12/18 11:00p   19.1   19.6   19.1    79   15.4   0.0   ---  0.00   0.0   ---   19.1   19.6   19.6   18.1  1026.3  0.00   0.0     0     0.00      0     0.0  0.00   0.0   0.000   0.016   27.8    50    0.03   700    1    100.0   30 
11/12/18 11:30p   18.6   19.1   18.6    80   15.0   0.0   ---  0.00   0.0   ---   18.6   19.0   19.0   17.5  1026.0  0.00   0.0     0     0.00      0     0.0  0.00   0.0   0.000   0.005   27.9    50    0.00   702    1    100.0   30 
12/12/18 12:00a   18.1   18.6   18.1    81   14.8   0.0   ---  0.00   0.0   ---   18.1   18.4   18.4   16.9  1025.9  0.00   0.0     0     0.00      0     0.0  0.00   0.0   0.005   0.000   27.9    49    0.03   702    1    100.0   30 
12/12/18 12:30a   17.6   18.1   17.6    84   14.9   0.0   ---  0.00   0.0   ---   17.6   17.9   17.9   16.3  1025.9  0.00   0.0     0     0.00      0     0.0  0.00   0.0   0.015   0.000   27.9    48    0.00   700    1    100.0   30 
12/12/18  1:00a   17.3   17.6   17.3    84   14.5   0.0   ---  0.00   0.0   ---   17.3   17.6   17.6   16.0  1025.2  0.00   0.0     0     0.00      0     0.0  0.00   0.0   0.022   0.000   27.8    47    0.03   700    1    100.0   30 
12/12/18  1:30a   16.8   17.3   16.8    86   14.5   0.0   ---  0.00   0.0   ---   16.8   17.1   17.1   15.5  1024.9  0.00   0.0     0     0.00      0     0.0  0.00   0.0   0.031   0.000   27.8    47    0.00   701    1    100.0   30 
12/12/18  2:00a   16.2   16.8   16.2    87   14.0   0.0   ---  0.00   0.0   ---   16.2   16.3   16.3   14.8  1024.4  0.00   0.0     0     0.00      0     0.0  0.00   0.0   0.045   0.000   28.1    46    0.00   702    1    100.0   30 
12/12/18  2:30a   15.9   16.2   15.9    89   14.1   0.0   ---  0.00   0.0   ---   15.9   16.1   16.1   14.5  1024.0  0.00   0.0     0     0.00      0     0.0  0.00   0.0   0.051   0.000   27.8    46    0.00   697    1    100.0   30